Observation data for Wall on 06/15/2019      Previous  Date  Next       Current Mesonet Observations  Soil Data  Daily Summary Page  Observations in Plain Language
KWA1 150500Z 17014KT 26/18 A2989 RMK A01 T02620176  RH  059%=      5-min Rain = 0
KWA1 150501Z 17012KT 26/18 A2989 RMK A01 T02620176  RH  059%=      5-min Rain = 0
KWA1 150502Z 17014KT 26/18 A2989 RMK A01 T02620177  RH  059%=      5-min Rain = 0
KWA1 150503Z 16013KT 26/18 A2989 RMK A01 T02620177  RH  059%=      5-min Rain = 0
KWA1 150504Z 17014KT 26/18 A2989 RMK A01 T02630177  RH  059%=      5-min Rain = 0
KWA1 150505Z 17013KT 26/18 A2989 RMK A01 T02620177  RH  059%=      5-min Rain = 0
KWA1 150506Z 17014KT 26/18 A2989 RMK A01 T02620177  RH  059%=      5-min Rain = 0
KWA1 150507Z 17014KT 26/18 A2989 RMK A01 T02630177  RH  059%=      5-min Rain = 0
KWA1 150508Z 16013KT 26/18 A2989 RMK A01 T02630177  RH  059%=      5-min Rain = 0
KWA1 150509Z 17013KT 26/18 A2989 RMK A01 T02630177  RH  059%=      5-min Rain = 0
KWA1 150510Z 17013KT 26/18 A2989 RMK A01 T02620177  RH  060%=      5-min Rain = 0
KWA1 150511Z 17013KT 26/18 A2989 RMK A01 T02610177  RH  060%=      5-min Rain = 0
KWA1 150512Z 16012KT 26/18 A2989 RMK A01 T02610177  RH  060%=      5-min Rain = 0
KWA1 150513Z 16012KT 26/18 A2989 RMK A01 T02610177  RH  060%=      5-min Rain = 0
KWA1 150514Z 16011KT 26/18 A2989 RMK A01 T02610177  RH  060%=      5-min Rain = 0
KWA1 150515Z 16012KT 26/18 A2989 RMK A01 T02610177  RH  060%=      5-min Rain = 0
KWA1 150516Z 16012KT 26/18 A2989 RMK A01 T02610178  RH  060%=      5-min Rain = 0
KWA1 150517Z 17012KT 26/18 A2989 RMK A01 T02610177  RH  060%=      5-min Rain = 0
KWA1 150518Z 16013KT 26/18 A2989 RMK A01 T02610177  RH  060%=      5-min Rain = 0
KWA1 150519Z 16013KT 26/18 A2989 RMK A01 T02610177  RH  060%=      5-min Rain = 0
KWA1 150520Z 16010KT 26/18 A2989 RMK A01 T02610178  RH  060%=      5-min Rain = 0
KWA1 150521Z 17011KT 26/18 A2989 RMK A01 T02600178  RH  060%=      5-min Rain = 0
KWA1 150522Z 16014KT 26/18 A2989 RMK A01 T02600177  RH  060%=      5-min Rain = 0
KWA1 150523Z 16012KT 26/18 A2989 RMK A01 T02600178  RH  060%=      5-min Rain = 0
KWA1 150524Z 17015KT 26/18 A2989 RMK A01 T02600178  RH  060%=      5-min Rain = 0
KWA1 150525Z 17014KT 26/18 A2989 RMK A01 T02610178  RH  060%=      5-min Rain = 0
KWA1 150526Z 16014KT 26/18 A299 RMK A01 T02610178  RH  060%=      5-min Rain = 0
KWA1 150527Z 17015KT 26/18 A2989 RMK A01 T02620178  RH  060%=      5-min Rain = 0
KWA1 150528Z 17016KT 26/18 A299 RMK A01 T02610178  RH  060%=      5-min Rain = 0
KWA1 150529Z 17013KT 26/18 A2989 RMK A01 T02610178  RH  060%=      5-min Rain = 0
KWA1 150530Z 17014KT 26/18 A2989 RMK A01 T02610178  RH  060%=      5-min Rain = 0
KWA1 150531Z 17014KT 26/18 A2989 RMK A01 T02610178  RH  060%=      5-min Rain = 0
KWA1 150532Z 17015KT 26/18 A2989 RMK A01 T02610178  RH  061%=      5-min Rain = 0
KWA1 150533Z 17016G21KT 26/18 A2989 RMK A01 T02610179  RH  061%=      5-min Rain = 0
KWA1 150534Z 17015KT 26/18 A2989 RMK A01 T02610179  RH  061%=      5-min Rain = 0
KWA1 150535Z 17017KT 26/18 A2989 RMK A01 T02610179  RH  061%=      5-min Rain = 0
KWA1 150536Z 17015KT 26/18 A2989 RMK A01 T02610179  RH  060%=      5-min Rain = 0
KWA1 150537Z 17014KT 26/18 A2989 RMK A01 T02610179  RH  061%=      5-min Rain = 0
KWA1 150538Z 17015KT 26/18 A2989 RMK A01 T02610180  RH  061%=      5-min Rain = 0
KWA1 150539Z 17017KT 26/18 A2989 RMK A01 T02610179  RH  061%=      5-min Rain = 0
KWA1 150540Z 16017KT 26/18 A2989 RMK A01 T02610179  RH  061%=      5-min Rain = 0
KWA1 150541Z 17017KT 26/18 A2989 RMK A01 T02610179  RH  061%=      5-min Rain = 0
KWA1 150542Z 17016KT 26/18 A2989 RMK A01 T02610179  RH  061%=      5-min Rain = 0
KWA1 150543Z 17018KT 26/18 A2989 RMK A01 T02610180  RH  061%=      5-min Rain = 0
KWA1 150544Z 17016KT 26/18 A2989 RMK A01 T02620179  RH  061%=      5-min Rain = 0
KWA1 150545Z 17015KT 26/18 A2989 RMK A01 T02610179  RH  061%=      5-min Rain = 0
KWA1 150546Z 17017KT 26/18 A2989 RMK A01 T02620180  RH  061%=      5-min Rain = 0
KWA1 150547Z 17016KT 26/18 A2989 RMK A01 T02620180  RH  061%=      5-min Rain = 0
KWA1 150548Z 17014KT 26/18 A2989 RMK A01 T02620180  RH  061%=      5-min Rain = 0
KWA1 150549Z 17015KT 26/18 A2989 RMK A01 T02610180  RH  061%=      5-min Rain = 0
KWA1 150550Z 17017KT 26/18 A2989 RMK A01 T02610180  RH  061%=      5-min Rain = 0
KWA1 150551Z 17016KT 26/18 A2989 RMK A01 T02610180  RH  061%=      5-min Rain = 0
KWA1 150552Z 17016KT 26/18 A2989 RMK A01 T02610180  RH  061%=      5-min Rain = 0
KWA1 150553Z 17015KT 26/18 A2989 RMK A01 T02610180  RH  061%=      5-min Rain = 0
KWA1 150554Z 17015KT 26/18 A2989 RMK A01 T02610180  RH  061%=      5-min Rain = 0
KWA1 150555Z 17013KT 26/18 A2989 RMK A01 T02610181  RH  061%=      5-min Rain = 0
KWA1 150556Z 17014KT 26/18 A2989 RMK A01 T02600181  RH  062%=      5-min Rain = 0
KWA1 150557Z 17016KT 26/18 A2989 RMK A01 T02600181  RH  062%=      5-min Rain = 0
KWA1 150558Z 17016KT 26/18 A2989 RMK A01 T02600181  RH  062%=      5-min Rain = 0
KWA1 150559Z 17017KT 26/18 A2989 RMK A01 T02610181  RH  062%=      5-min Rain = 0
KWA1 150600Z 17017KT 26/18 A2989 RMK A01 T02610181  RH  061%=      5-min Rain = 0
KWA1 150601Z 17014KT 26/18 A2989 RMK A01 T02610181  RH  061%=      5-min Rain = 0
KWA1 150602Z 17015KT 26/18 A2989 RMK A01 T02610182  RH  062%=      5-min Rain = 0
KWA1 150603Z 17016KT 26/18 A2989 RMK A01 T02600181  RH  062%=      5-min Rain = 0
KWA1 150604Z 17015KT 26/18 A2989 RMK A01 T02600181  RH  062%=      5-min Rain = 0
KWA1 150605Z 17016KT 26/18 A2989 RMK A01 T02600182  RH  062%=      5-min Rain = 0
KWA1 150606Z 17017KT 26/18 A2989 RMK A01 T02600181  RH  062%=      5-min Rain = 0
KWA1 150607Z 17017KT 26/18 A2989 RMK A01 T02610182  RH  062%=      5-min Rain = 0
KWA1 150608Z 17015G21KT 26/18 A2989 RMK A01 T02610182  RH  062%=      5-min Rain = 0
KWA1 150609Z 17017KT 26/18 A2989 RMK A01 T02600182  RH  062%=      5-min Rain = 0
KWA1 150610Z 17015KT 26/18 A2989 RMK A01 T02610182  RH  062%=      5-min Rain = 0
KWA1 150611Z 17015KT 26/18 A2989 RMK A01 T02610183  RH  062%=      5-min Rain = 0
KWA1 150612Z 17016KT 26/18 A2989 RMK A01 T02600182  RH  062%=      5-min Rain = 0
KWA1 150613Z 17015KT 26/18 A2989 RMK A01 T02600182  RH  062%=      5-min Rain = 0
KWA1 150614Z 17019G24KT 26/18 A2989 RMK A01 T02600182  RH  062%=      5-min Rain = 0
KWA1 150615Z 17014KT 26/18 A2989 RMK A01 T02600183  RH  062%=      5-min Rain = 0
KWA1 150616Z 18014KT 26/18 A2989 RMK A01 T02600183  RH  063%=      5-min Rain = 0
KWA1 150617Z 17019KT 26/18 A2989 RMK A01 T02590183  RH  063%=      5-min Rain = 0
KWA1 150618Z 17016KT 26/18 A2989 RMK A01 T02600183  RH  063%=      5-min Rain = 0
KWA1 150619Z 17019KT 26/18 A2989 RMK A01 T02600183  RH  063%=      5-min Rain = 0
KWA1 150620Z 17019KT 26/18 A2989 RMK A01 T02600183  RH  063%=      5-min Rain = 0
KWA1 150621Z 17018KT 26/18 A2989 RMK A01 T02610184  RH  063%=      5-min Rain = 0
KWA1 150622Z 17015KT 26/18 A2989 RMK A01 T02610184  RH  063%=      5-min Rain = 0
KWA1 150623Z 17015KT 26/18 A2989 RMK A01 T02600184  RH  063%=      5-min Rain = 0
KWA1 150624Z 17018G23KT 26/18 A2989 RMK A01 T02590184  RH  063%=      5-min Rain = 0
KWA1 150625Z 17019KT 26/18 A2989 RMK A01 T02600184  RH  063%=      5-min Rain = 0
KWA1 150626Z 17015KT 26/18 A2988 RMK A01 T02600184  RH  063%=      5-min Rain = 0
KWA1 150627Z 17016KT 26/18 A2988 RMK A01 T02600184  RH  063%=      5-min Rain = 0
KWA1 150628Z 18016KT 26/18 A2988 RMK A01 T02600184  RH  063%=      5-min Rain = 0
KWA1 150629Z 17019KT 26/18 A2988 RMK A01 T02590184  RH  063%=      5-min Rain = 0
KWA1 150630Z 17016KT 26/19 A2988 RMK A01 T02590185  RH  063%=      5-min Rain = 0
KWA1 150631Z 17017KT 26/19 A2988 RMK A01 T02590185  RH  063%=      5-min Rain = 0
KWA1 150632Z 18015KT 26/19 A2988 RMK A01 T02590185  RH  063%=      5-min Rain = 0
KWA1 150633Z 18015KT 26/19 A2988 RMK A01 T02590185  RH  064%=      5-min Rain = 0
KWA1 150634Z 17016KT 26/19 A2988 RMK A01 T02590185  RH  064%=      5-min Rain = 0
KWA1 150635Z 17019G24KT 26/19 A2988 RMK A01 T02590185  RH  064%=      5-min Rain = 0
KWA1 150636Z 17019KT 26/19 A2988 RMK A01 T02590185  RH  064%=      5-min Rain = 0
KWA1 150637Z 18017KT 26/19 A2988 RMK A01 T02590186  RH  064%=      5-min Rain = 0
KWA1 150638Z 17017KT 26/19 A2988 RMK A01 T02590186  RH  064%=      5-min Rain = 0
KWA1 150639Z 18018G23KT 26/19 A2988 RMK A01 T02590186  RH  064%=      5-min Rain = 0
KWA1 150640Z 18016KT 26/19 A2988 RMK A01 T02590186  RH  064%=      5-min Rain = 0
KWA1 150641Z 18017KT 26/19 A2988 RMK A01 T02580186  RH  064%=      5-min Rain = 0
KWA1 150642Z 18018KT 26/19 A2988 RMK A01 T02580186  RH  064%=      5-min Rain = 0
KWA1 150643Z 17018KT 26/19 A2988 RMK A01 T02580186  RH  064%=      5-min Rain = 0
KWA1 150644Z 18019KT 26/19 A2987 RMK A01 T02580186  RH  064%=      5-min Rain = 0
KWA1 150645Z 18018G23KT 26/19 A2987 RMK A01 T02580186  RH  064%=      5-min Rain = 0
KWA1 150646Z 18019KT 26/19 A2987 RMK A01 T02590186  RH  064%=      5-min Rain = 0
KWA1 150647Z 18019G25KT 26/19 A2987 RMK A01 T02590187  RH  064%=      5-min Rain = 0
KWA1 150648Z 18024KT 26/19 A2987 RMK A01 T02590187  RH  064%=      5-min Rain = 0
KWA1 150649Z 18021KT 26/19 A2987 RMK A01 T02600187  RH  064%=      5-min Rain = 0
KWA1 150650Z 18021KT 26/19 A2987 RMK A01 T02600187  RH  064%=      5-min Rain = 0
KWA1 150651Z 18021KT 26/19 A2987 RMK A01 T02600187  RH  064%=      5-min Rain = 0
KWA1 150652Z 18020KT 26/19 A2987 RMK A01 T02590187  RH  064%=      5-min Rain = 0
KWA1 150653Z 18021KT 26/19 A2987 RMK A01 T02590187  RH  065%=      5-min Rain = 0
KWA1 150654Z 18020KT 26/19 A2987 RMK A01 T02590187  RH  065%=      5-min Rain = 0
KWA1 150655Z 18018KT 26/19 A2987 RMK A01 T02590188  RH  065%=      5-min Rain = 0
KWA1 150656Z 18021KT 26/19 A2987 RMK A01 T02590188  RH  065%=      5-min Rain = 0
KWA1 150657Z 18020KT 26/19 A2987 RMK A01 T02590188  RH  065%=      5-min Rain = 0
KWA1 150658Z 18017G22KT 26/19 A2987 RMK A01 T02590188  RH  065%=      5-min Rain = 0
KWA1 150659Z 18019KT 26/19 A2987 RMK A01 T02590188  RH  065%=      5-min Rain = 0
KWA1 150700Z 18016KT 26/19 A2987 RMK A01 T02580188  RH  065%=      5-min Rain = 0
KWA1 150701Z 18015KT 26/19 A2987 RMK A01 T02580188  RH  065%=      5-min Rain = 0
KWA1 150702Z 18016KT 26/19 A2987 RMK A01 T02570188  RH  066%=      5-min Rain = 0
KWA1 150703Z 18018G23KT 26/19 A2987 RMK A01 T02570188  RH  066%=      5-min Rain = 0
KWA1 150704Z 18018KT 26/19 A2987 RMK A01 T02570188  RH  066%=      5-min Rain = 0
KWA1 150705Z 18020KT 26/19 A2987 RMK A01 T02580188  RH  065%=      5-min Rain = 0
KWA1 150706Z 18020G26KT 26/19 A2987 RMK A01 T02580188  RH  065%=      5-min Rain = 0
KWA1 150707Z 18017KT 26/19 A2987 RMK A01 T02580189  RH  065%=      5-min Rain = 0
KWA1 150708Z 18019G27KT 26/19 A2987 RMK A01 T02580189  RH  065%=      5-min Rain = 0
KWA1 150709Z 18020KT 26/19 A2987 RMK A01 T02580189  RH  066%=      5-min Rain = 0
KWA1 150710Z 18018KT 26/19 A2987 RMK A01 T02580189  RH  065%=      5-min Rain = 0
KWA1 150711Z 18020G26KT 26/19 A2987 RMK A01 T02590190  RH  066%=      5-min Rain = 0
KWA1 150712Z 18020KT 26/19 A2987 RMK A01 T02590190  RH  066%=      5-min Rain = 0
KWA1 150713Z 18020KT 26/19 A2987 RMK A01 T02590189  RH  065%=      5-min Rain = 0
KWA1 150714Z 18022KT 26/19 A2986 RMK A01 T02590189  RH  065%=      5-min Rain = 0
KWA1 150715Z 18021KT 26/19 A2986 RMK A01 T02590189  RH  065%=      5-min Rain = 0
KWA1 150716Z 18020KT 26/19 A2986 RMK A01 T02600189  RH  065%=      5-min Rain = 0
KWA1 150717Z 18022KT 26/19 A2986 RMK A01 T02600190  RH  065%=      5-min Rain = 0
KWA1 150718Z 18024G29KT 26/19 A2986 RMK A01 T02600190  RH  065%=      5-min Rain = 0
KWA1 150719Z 18024KT 26/19 A2986 RMK A01 T02610189  RH  065%=      5-min Rain = 0
KWA1 150720Z 18022KT 26/19 A2986 RMK A01 T02610189  RH  065%=      5-min Rain = 0
KWA1 150721Z 18022KT 26/19 A2986 RMK A01 T02610190  RH  065%=      5-min Rain = 0
KWA1 150722Z 18020KT 26/19 A2986 RMK A01 T02610190  RH  065%=      5-min Rain = 0
KWA1 150723Z 18021G26KT 26/19 A2986 RMK A01 T02610190  RH  065%=      5-min Rain = 0
KWA1 150724Z 18023KT 26/19 A2986 RMK A01 T02610190  RH  065%=      5-min Rain = 0
KWA1 150725Z 18020KT 26/19 A2986 RMK A01 T02610191  RH  065%=      5-min Rain = 0
KWA1 150726Z 18018KT 26/19 A2986 RMK A01 T02600190  RH  065%=      5-min Rain = 0
KWA1 150727Z 18019KT 26/19 A2986 RMK A01 T02600191  RH  066%=      5-min Rain = 0
KWA1 150728Z 19021KT 26/19 A2986 RMK A01 T02590190  RH  066%=      5-min Rain = 0
KWA1 150729Z 18019KT 26/19 A2986 RMK A01 T02590190  RH  066%=      5-min Rain = 0
KWA1 150730Z 18020KT 26/19 A2985 RMK A01 T02590190  RH  066%=      5-min Rain = 0
KWA1 150731Z 18022KT 26/19 A2985 RMK A01 T02590191  RH  066%=      5-min Rain = 0
KWA1 150732Z 18021KT 26/19 A2985 RMK A01 T02600191  RH  066%=      5-min Rain = 0
KWA1 150733Z 18022G27KT 26/19 A2985 RMK A01 T02600191  RH  066%=      5-min Rain = 0
KWA1 150734Z 18022G27KT 26/19 A2985 RMK A01 T02600191  RH  066%=      5-min Rain = 0
KWA1 150735Z 18019KT 26/19 A2985 RMK A01 T02600191  RH  066%=      5-min Rain = 0
KWA1 150736Z 18023KT 26/19 A2985 RMK A01 T02600191  RH  066%=      5-min Rain = 0
KWA1 150737Z 18023KT 26/19 A2985 RMK A01 T02600191  RH  066%=      5-min Rain = 0
KWA1 150738Z 18024KT 26/19 A2985 RMK A01 T02600191  RH  066%=      5-min Rain = 0
KWA1 150739Z 18021KT 26/19 A2985 RMK A01 T02600192  RH  066%=      5-min Rain = 0
KWA1 150740Z 18022KT 26/19 A2985 RMK A01 T02600192  RH  066%=      5-min Rain = 0
KWA1 150741Z 19022KT 26/19 A2985 RMK A01 T02590192  RH  066%=      5-min Rain = 0
KWA1 150742Z 18022G27KT 26/19 A2985 RMK A01 T02590192  RH  066%=      5-min Rain = 0
KWA1 150743Z 19023G28KT 26/19 A2985 RMK A01 T02590192  RH  067%=      5-min Rain = 0
KWA1 150744Z 19022KT 26/19 A2985 RMK A01 T02590192  RH  067%=      5-min Rain = 0
KWA1 150745Z 18022KT 26/19 A2985 RMK A01 T02590192  RH  067%=      5-min Rain = 0
KWA1 150746Z 18019G26KT 26/19 A2985 RMK A01 T02590193  RH  067%=      5-min Rain = 0
KWA1 150747Z 18023KT 26/19 A2985 RMK A01 T02580192  RH  067%=      5-min Rain = 0
KWA1 150748Z 19021KT 26/19 A2985 RMK A01 T02580192  RH  067%=      5-min Rain = 0
KWA1 150749Z 19020KT 26/19 A2985 RMK A01 T02580192  RH  067%=      5-min Rain = 0
KWA1 150750Z 19023KT 26/19 A2985 RMK A01 T02580192  RH  067%=      5-min Rain = 0
KWA1 150751Z 19020G25KT 26/19 A2985 RMK A01 T02580193  RH  067%=      5-min Rain = 0
KWA1 150752Z 19021KT 26/19 A2985 RMK A01 T02580193  RH  067%=      5-min Rain = 0
KWA1 150753Z 19019KT 26/19 A2985 RMK A01 T02580193  RH  067%=      5-min Rain = 0
KWA1 150754Z 19023KT 26/19 A2985 RMK A01 T02580193  RH  067%=      5-min Rain = 0
KWA1 150755Z 19022G27KT 26/19 A2985 RMK A01 T02580193  RH  067%=      5-min Rain = 0
KWA1 150756Z 19019KT 26/19 A2985 RMK A01 T02580193  RH  067%=      5-min Rain = 0
KWA1 150757Z 18021KT 26/19 A2985 RMK A01 T02580193  RH  067%=      5-min Rain = 0
KWA1 150758Z 19020G25KT 26/19 A2985 RMK A01 T02580193  RH  067%=      5-min Rain = 0
KWA1 150759Z 19024KT 26/19 A2985 RMK A01 T02580193  RH  067%=      5-min Rain = 0
KWA1 150800Z 19019KT 26/19 A2985 RMK A01 T02580193  RH  067%=      5-min Rain = 0
KWA1 150801Z 19020KT 26/19 A2985 RMK A01 T02580193  RH  067%=      5-min Rain = 0
KWA1 150802Z 19022G27KT 26/19 A2985 RMK A01 T02580194  RH  068%=      5-min Rain = 0
KWA1 150803Z 18021KT 26/19 A2985 RMK A01 T02580194  RH  068%=      5-min Rain = 0
KWA1 150804Z 19021KT 26/19 A2985 RMK A01 T02580194  RH  068%=      5-min Rain = 0
KWA1 150805Z 19018G24KT 26/19 A2985 RMK A01 T02570194  RH  068%=      5-min Rain = 0
KWA1 150806Z 20022KT 26/19 A2985 RMK A01 T02570194  RH  068%=      5-min Rain = 0
KWA1 150807Z 19021KT 26/19 A2985 RMK A01 T02570194  RH  068%=      5-min Rain = 0
KWA1 150808Z 19023KT 26/19 A2985 RMK A01 T02570194  RH  068%=      5-min Rain = 0
KWA1 150809Z 19021KT 26/19 A2985 RMK A01 T02570194  RH  068%=      5-min Rain = 0
KWA1 150810Z 19023KT 26/20 A2985 RMK A01 T02570195  RH  068%=      5-min Rain = 0
KWA1 150811Z 18021KT 26/20 A2985 RMK A01 T02570195  RH  068%=      5-min Rain = 0
KWA1 150812Z 19021KT 26/20 A2985 RMK A01 T02570195  RH  069%=      5-min Rain = 0
KWA1 150813Z 18018KT 26/19 A2985 RMK A01 T02560194  RH  069%=      5-min Rain = 0
KWA1 150814Z 18022KT 26/19 A2985 RMK A01 T02560194  RH  069%=      5-min Rain = 0
KWA1 150815Z 19019KT 26/20 A2985 RMK A01 T02560195  RH  069%=      5-min Rain = 0
KWA1 150816Z 18017KT 26/20 A2985 RMK A01 T02560195  RH  069%=      5-min Rain = 0
KWA1 150817Z 19018KT 26/20 A2984 RMK A01 T02550195  RH  069%=      5-min Rain = 0
KWA1 150818Z 19020KT 26/20 A2985 RMK A01 T02550195  RH  069%=      5-min Rain = 0
KWA1 150819Z 19017KT 26/20 A2984 RMK A01 T02550195  RH  069%=      5-min Rain = 0
KWA1 150820Z 19020KT 26/20 A2984 RMK A01 T02550195  RH  069%=      5-min Rain = 0
KWA1 150821Z 19020G25KT 26/20 A2984 RMK A01 T02550195  RH  070%=      5-min Rain = 0
KWA1 150822Z 18020G25KT 26/20 A2984 RMK A01 T02550195  RH  069%=      5-min Rain = 0
KWA1 150823Z 18019KT 26/20 A2984 RMK A01 T02550196  RH  070%=      5-min Rain = 0
KWA1 150824Z 18019KT 26/20 A2984 RMK A01 T02550195  RH  070%=      5-min Rain = 0
KWA1 150825Z 18017KT 26/20 A2984 RMK A01 T02550196  RH  070%=      5-min Rain = 0
KWA1 150826Z 18018KT 25/20 A2984 RMK A01 T02540196  RH  070%=      5-min Rain = 0
KWA1 150827Z 19019KT 25/20 A2984 RMK A01 T02540196  RH  070%=      5-min Rain = 0
KWA1 150828Z 18016KT 25/20 A2984 RMK A01 T02540196  RH  070%=      5-min Rain = 0
KWA1 150829Z 18018KT 25/20 A2984 RMK A01 T02530196  RH  070%=      5-min Rain = 0
KWA1 150830Z 18016KT 25/20 A2984 RMK A01 T02530196  RH  070%=      5-min Rain = 0
KWA1 150831Z 19018G25KT 25/20 A2984 RMK A01 T02530196  RH  070%=      5-min Rain = 0
KWA1 150832Z 18019G25KT 25/20 A2984 RMK A01 T02530196  RH  071%=      5-min Rain = 0
KWA1 150833Z 19018KT 25/20 A2984 RMK A01 T02530196  RH  071%=      5-min Rain = 0
KWA1 150834Z 19018KT 25/20 A2984 RMK A01 T02530196  RH  071%=      5-min Rain = 0
KWA1 150835Z 18018KT 25/20 A2984 RMK A01 T02530196  RH  071%=      5-min Rain = 0
KWA1 150836Z 18016KT 25/20 A2984 RMK A01 T02530196  RH  071%=      5-min Rain = 0
KWA1 150837Z 18018KT 25/20 A2984 RMK A01 T02520196  RH  071%=      5-min Rain = 0
KWA1 150838Z 18018KT 25/20 A2984 RMK A01 T02520196  RH  071%=      5-min Rain = 0
KWA1 150839Z 19019KT 25/20 A2984 RMK A01 T02520196  RH  071%=      5-min Rain = 0
KWA1 150840Z 18019KT 25/20 A2984 RMK A01 T02520196  RH  071%=      5-min Rain = 0
KWA1 150841Z 18019KT 25/20 A2984 RMK A01 T02520196  RH  071%=      5-min Rain = 0
KWA1 150842Z 18016KT 25/20 A2984 RMK A01 T02520196  RH  071%=      5-min Rain = 0
KWA1 150843Z 18018KT 25/20 A2984 RMK A01 T02520196  RH  071%=      5-min Rain = 0
KWA1 150844Z 19016KT 25/20 A2984 RMK A01 T02520196  RH  071%=      5-min Rain = 0
KWA1 150845Z 18018KT 25/20 A2984 RMK A01 T02510197  RH  072%=      5-min Rain = 0
KWA1 150846Z 19016KT 25/20 A2984 RMK A01 T02510197  RH  072%=      5-min Rain = 0
KWA1 150847Z 18016KT 25/20 A2984 RMK A01 T02510197  RH  072%=      5-min Rain = 0
KWA1 150848Z 18020KT 25/20 A2984 RMK A01 T02510197  RH  072%=      5-min Rain = 0
KWA1 150849Z 19018KT 25/20 A2983 RMK A01 T02510197  RH  072%=      5-min Rain = 0
KWA1 150850Z 18019G24KT 25/20 A2983 RMK A01 T02510196  RH  072%=      5-min Rain = 0
KWA1 150851Z 18018KT 25/20 A2983 RMK A01 T02510197  RH  072%=      5-min Rain = 0
KWA1 150852Z 18016G21KT 25/20 A2983 RMK A01 T02510197  RH  072%=      5-min Rain = 0
KWA1 150853Z 18017KT 25/20 A2983 RMK A01 T02510197  RH  072%=      5-min Rain = 0
KWA1 150854Z 18017KT 25/20 A2983 RMK A01 T02500197  RH  072%=      5-min Rain = 0
KWA1 150855Z 18016KT 25/20 A2983 RMK A01 T02500197  RH  072%=      5-min Rain = 0
KWA1 150856Z 19017G22KT 25/20 A2984 RMK A01 T02500197  RH  072%=      5-min Rain = 0
KWA1 150857Z 18022KT 25/20 A2983 RMK A01 T02500197  RH  073%=      5-min Rain = 0
KWA1 150858Z 19020KT 25/20 A2983 RMK A01 T02500198  RH  072%=      5-min Rain = 0
KWA1 150859Z 19016KT 25/20 A2983 RMK A01 T02500197  RH  072%=      5-min Rain = 0
KWA1 150900Z 19015KT 25/20 A2983 RMK A01 T02500197  RH  073%=      5-min Rain = 0
KWA1 150901Z 19018KT 25/20 A2983 RMK A01 T02490197  RH  073%=      5-min Rain = 0
KWA1 150902Z 19019KT 25/20 A2983 RMK A01 T02490198  RH  073%=      5-min Rain = 0
KWA1 150903Z 18020KT 25/20 A2983 RMK A01 T02490198  RH  073%=      5-min Rain = 0
KWA1 150904Z 19020KT 25/20 A2983 RMK A01 T02490198  RH  073%=      5-min Rain = 0
KWA1 150905Z 19019G24KT 25/20 A2983 RMK A01 T02490198  RH  073%=      5-min Rain = 0
KWA1 150906Z 19021KT 25/20 A2983 RMK A01 T02490198  RH  073%=      5-min Rain = 0
KWA1 150907Z 19018KT 25/20 A2983 RMK A01 T02490199  RH  074%=      5-min Rain = 0
KWA1 150908Z 19018KT 25/20 A2983 RMK A01 T02490199  RH  074%=      5-min Rain = 0
KWA1 150909Z 18017G24KT 25/20 A2983 RMK A01 T02480199  RH  074%=      5-min Rain = 0
KWA1 150910Z 18020KT 25/20 A2983 RMK A01 T02480199  RH  074%=      5-min Rain = 0
KWA1 150911Z 19018KT 25/20 A2983 RMK A01 T02480199  RH  074%=      5-min Rain = 0
KWA1 150912Z 18018KT 25/20 A2983 RMK A01 T02480199  RH  074%=      5-min Rain = 0
KWA1 150913Z 19019KT 25/20 A2983 RMK A01 T02480199  RH  074%=      5-min Rain = 0
KWA1 150914Z 19021G26KT 25/20 A2983 RMK A01 T02480199  RH  074%=      5-min Rain = 0
KWA1 150915Z 19018KT 25/20 A2984 RMK A01 T02480200  RH  074%=      5-min Rain = 0
KWA1 150916Z 19021KT 25/20 A2983 RMK A01 T02480199  RH  074%=      5-min Rain = 0
KWA1 150917Z 19020G25KT 25/20 A2983 RMK A01 T02480200  RH  075%=      5-min Rain = 0
KWA1 150918Z 19019KT 25/20 A2983 RMK A01 T02480200  RH  075%=      5-min Rain = 0
KWA1 150919Z 18017KT 25/20 A2983 RMK A01 T02470200  RH  075%=      5-min Rain = 0
KWA1 150920Z 19019G24KT 25/20 A2983 RMK A01 T02470200  RH  075%=      5-min Rain = 0
KWA1 150921Z 19020KT 25/20 A2983 RMK A01 T02470200  RH  075%=      5-min Rain = 0
KWA1 150922Z 19020KT 25/20 A2983 RMK A01 T02470200  RH  075%=      5-min Rain = 0
KWA1 150923Z 19019G25KT 25/20 A2984 RMK A01 T02470200  RH  075%=      5-min Rain = 0
KWA1 150924Z 19020KT 25/20 A2983 RMK A01 T02470200  RH  075%=      5-min Rain = 0
KWA1 150925Z 19020G28KT 25/20 A2983 RMK A01 T02470200  RH  075%=      5-min Rain = 0
KWA1 150926Z 19023KT 25/20 A2983 RMK A01 T02470200  RH  075%=      5-min Rain = 0
KWA1 150927Z 19022KT 25/20 A2983 RMK A01 T02470201  RH  075%=      5-min Rain = 0
KWA1 150928Z 19019G24KT 25/20 A2983 RMK A01 T02470201  RH  075%=      5-min Rain = 0
KWA1 150929Z 19019KT 25/20 A2983 RMK A01 T02470201  RH  076%=      5-min Rain = 0
KWA1 150930Z 19018KT 25/20 A2984 RMK A01 T02460201  RH  076%=      5-min Rain = 0
KWA1 150931Z 19018KT 25/20 A2984 RMK A01 T02460201  RH  076%=      5-min Rain = 0
KWA1 150932Z 19018KT 25/20 A2984 RMK A01 T02450201  RH  076%=      5-min Rain = 0
KWA1 150933Z 19021KT 25/20 A2984 RMK A01 T02450201  RH  076%=      5-min Rain = 0
KWA1 150934Z 20021KT 25/20 A2984 RMK A01 T02450201  RH  076%=      5-min Rain = 0
KWA1 150935Z 19018KT 25/20 A2984 RMK A01 T02460201  RH  076%=      5-min Rain = 0
KWA1 150936Z 20016KT 25/20 A2984 RMK A01 T02450201  RH  076%=      5-min Rain = 0
KWA1 150937Z 20017G22KT 25/20 A2984 RMK A01 T02450201  RH  077%=      5-min Rain = 0
KWA1 150938Z 20018KT 24/20 A2984 RMK A01 T02440201  RH  077%=      5-min Rain = 0
KWA1 150939Z 20019KT 24/20 A2984 RMK A01 T02440201  RH  077%=      5-min Rain = 0
KWA1 150940Z 19020KT 24/20 A2984 RMK A01 T02440202  RH  077%=      5-min Rain = 0
KWA1 150941Z 19019G24KT 24/20 A2984 RMK A01 T02440201  RH  077%=      5-min Rain = 0
KWA1 150942Z 19019G24KT 25/20 A2984 RMK A01 T02450202  RH  077%=      5-min Rain = 0
KWA1 150943Z 19020KT 24/20 A2984 RMK A01 T02440202  RH  077%=      5-min Rain = 0
KWA1 150944Z 19021KT 24/20 A2984 RMK A01 T02440202  RH  077%=      5-min Rain = 0
KWA1 150945Z 19020KT 25/20 A2984 RMK A01 T02450203  RH  077%=      5-min Rain = 0
KWA1 150946Z 19019KT 25/20 A2984 RMK A01 T02450203  RH  077%=      5-min Rain = 0
KWA1 150947Z 19016KT 24/20 A2984 RMK A01 T02440202  RH  077%=      5-min Rain = 0
KWA1 150948Z 19015KT 24/20 A2984 RMK A01 T02430202  RH  078%=      5-min Rain = 0
KWA1 150949Z 19018KT 24/20 A2984 RMK A01 T02430202  RH  078%=      5-min Rain = 0
KWA1 150950Z 19023KT 24/20 A2984 RMK A01 T02430203  RH  078%=      5-min Rain = 0
KWA1 150951Z 19020G25KT 24/20 A2984 RMK A01 T02430203  RH  078%=      5-min Rain = 0
KWA1 150952Z 19019G24KT 24/20 A2984 RMK A01 T02440203  RH  078%=      5-min Rain = 0
KWA1 150953Z 18019KT 24/20 A2984 RMK A01 T02440203  RH  078%=      5-min Rain = 0
KWA1 150954Z 19022KT 24/20 A2984 RMK A01 T02440204  RH  078%=      5-min Rain = 0
KWA1 150955Z 19023KT 24/20 A2984 RMK A01 T02440204  RH  078%=      5-min Rain = 0
KWA1 150956Z 19020KT 24/20 A2984 RMK A01 T02440204  RH  078%=      5-min Rain = 0
KWA1 150957Z 18019G24KT 24/20 A2984 RMK A01 T02430204  RH  079%=      5-min Rain = 0
KWA1 150958Z 18022KT 24/20 A2984 RMK A01 T02430204  RH  079%=      5-min Rain = 0
KWA1 150959Z 18020KT 24/21 A2984 RMK A01 T02430205  RH  079%=      5-min Rain = 0
KWA1 151000Z 19016KT 24/20 A2984 RMK A01 T02430204  RH  079%=      5-min Rain = 0
KWA1 151001Z 19019G24KT 24/20 A2984 RMK A01 T02420204  RH  079%=      5-min Rain = 0
KWA1 151002Z 19020KT 24/21 A2984 RMK A01 T02420205  RH  079%=      5-min Rain = 0
KWA1 151003Z 19021KT 24/20 A2984 RMK A01 T02420204  RH  079%=      5-min Rain = 0
KWA1 151004Z 19020KT 24/20 A2984 RMK A01 T02420204  RH  079%=      5-min Rain = 0
KWA1 151005Z 18020KT 24/20 A2984 RMK A01 T02420204  RH  079%=      5-min Rain = 0
KWA1 151006Z 19023KT 24/21 A2984 RMK A01 T02420205  RH  080%=      5-min Rain = 0
KWA1 151007Z 19022KT 24/21 A2983 RMK A01 T02420205  RH  079%=      5-min Rain = 0
KWA1 151008Z 19022KT 24/20 A2984 RMK A01 T02420204  RH  079%=      5-min Rain = 0
KWA1 151009Z 19019KT 24/20 A2984 RMK A01 T02420204  RH  079%=      5-min Rain = 0
KWA1 151010Z 19021KT 24/21 A2984 RMK A01 T02420205  RH  080%=      5-min Rain = 0
KWA1 151011Z 19024G32KT 24/21 A2984 RMK A01 T02420205  RH  080%=      5-min Rain = 0
KWA1 151012Z 19025KT 24/21 A2983 RMK A01 T02420205  RH  080%=      5-min Rain = 0
KWA1 151013Z 19021KT 24/21 A2984 RMK A01 T02420205  RH  079%=      5-min Rain = 0
KWA1 151014Z 18021KT 24/21 A2984 RMK A01 T02420205  RH  080%=      5-min Rain = 0
KWA1 151015Z 18021KT 24/21 A2983 RMK A01 T02420205  RH  080%=      5-min Rain = 0
KWA1 151016Z 18022KT 24/21 A2983 RMK A01 T02420205  RH  080%=      5-min Rain = 0
KWA1 151017Z 19022KT 24/21 A2983 RMK A01 T02420205  RH  080%=      5-min Rain = 0
KWA1 151018Z 19021KT 24/21 A2983 RMK A01 T02420205  RH  080%=      5-min Rain = 0
KWA1 151019Z 19022KT 24/21 A2983 RMK A01 T02420206  RH  080%=      5-min Rain = 0
KWA1 151020Z 19021KT 24/21 A2983 RMK A01 T02420205  RH  080%=      5-min Rain = 0
KWA1 151021Z 19021KT 24/21 A2984 RMK A01 T02420205  RH  080%=      5-min Rain = 0
KWA1 151022Z 19025G30KT 24/21 A2984 RMK A01 T02420205  RH  080%=      5-min Rain = 0
KWA1 151023Z 18022KT 24/21 A2984 RMK A01 T02420205  RH  080%=      5-min Rain = 0
KWA1 151024Z 19022G27KT 24/21 A2984 RMK A01 T02420205  RH  080%=      5-min Rain = 0
KWA1 151025Z 18020G25KT 24/21 A2984 RMK A01 T02420205  RH  080%=      5-min Rain = 0
KWA1 151026Z 19021G26KT 24/21 A2984 RMK A01 T02420205  RH  080%=      5-min Rain = 0
KWA1 151027Z 18020KT 24/21 A2984 RMK A01 T02420205  RH  080%=      5-min Rain = 0
KWA1 151028Z 19017KT 24/21 A2984 RMK A01 T02410205  RH  080%=      5-min Rain = 0
KWA1 151029Z 19019G25KT 24/21 A2984 RMK A01 T02410205  RH  080%=      5-min Rain = 0
KWA1 151030Z 18022KT 24/21 A2984 RMK A01 T02410205  RH  080%=      5-min Rain = 0
KWA1 151031Z 19018G26KT 24/21 A2984 RMK A01 T02410205  RH  080%=      5-min Rain = 0
KWA1 151032Z 19024G30KT 24/21 A2984 RMK A01 T02410205  RH  080%=      5-min Rain = 0
KWA1 151033Z 19023KT 24/21 A2984 RMK A01 T02420205  RH  080%=      5-min Rain = 0
KWA1 151034Z 19024G29KT 24/21 A2984 RMK A01 T02420205  RH  080%=      5-min Rain = 0
KWA1 151035Z 19023KT 24/21 A2984 RMK A01 T02420205  RH  080%=      5-min Rain = 0
KWA1 151036Z 19021G27KT 24/21 A2984 RMK A01 T02420205  RH  080%=      5-min Rain = 0
KWA1 151037Z 19020G25KT 24/21 A2984 RMK A01 T02420205  RH  080%=      5-min Rain = 0
KWA1 151038Z 19021KT 24/21 A2984 RMK A01 T02420205  RH  080%=      5-min Rain = 0
KWA1 151039Z 19018G23KT 24/21 A2984 RMK A01 T02420205  RH  080%=      5-min Rain = 0
KWA1 151040Z 19021KT 24/21 A2984 RMK A01 T02420205  RH  080%=      5-min Rain = 0
KWA1 151041Z 19021G27KT 24/21 A2984 RMK A01 T02420205  RH  080%=      5-min Rain = 0
KWA1 151042Z 19020KT 24/21 A2984 RMK A01 T02420205  RH  080%=      5-min Rain = 0
KWA1 151043Z 19017G22KT 24/21 A2984 RMK A01 T02420205  RH  080%=      5-min Rain = 0
KWA1 151044Z 19020G25KT 24/21 A2984 RMK A01 T02410205  RH  080%=      5-min Rain = 0
KWA1 151045Z 19020G27KT 24/20 A2984 RMK A01 T02410204  RH  080%=      5-min Rain = 0
KWA1 151046Z 19018KT 24/20 A2984 RMK A01 T02410204  RH  080%=      5-min Rain = 0
KWA1 151047Z 19022G27KT 24/21 A2984 RMK A01 T02410205  RH  080%=      5-min Rain = 0
KWA1 151048Z 19023KT 24/21 A2984 RMK A01 T02410205  RH  080%=      5-min Rain = 0
KWA1 151049Z 20021KT 24/20 A2984 RMK A01 T02410204  RH  080%=      5-min Rain = 0
KWA1 151050Z 19020KT 24/21 A2984 RMK A01 T02410205  RH  080%=      5-min Rain = 0
KWA1 151051Z 20018KT 24/21 A2984 RMK A01 T02410205  RH  080%=      5-min Rain = 0
KWA1 151052Z 20022KT 24/21 A2984 RMK A01 T02410205  RH  080%=      5-min Rain = 0
KWA1 151053Z 19022KT 24/21 A2984 RMK A01 T02410205  RH  080%=      5-min Rain = 0
KWA1 151054Z 20021G26KT 24/21 A2984 RMK A01 T02410205  RH  080%=      5-min Rain = 0
KWA1 151055Z 20023G28KT 24/21 A2984 RMK A01 T02410205  RH  080%=      5-min Rain = 0
KWA1 151056Z 20025G30KT 24/20 A2985 RMK A01 T02410204  RH  080%=      5-min Rain = 0
KWA1 151057Z 19024KT 24/21 A2985 RMK A01 T02420205  RH  080%=      5-min Rain = 0
KWA1 151058Z 19024G30KT 24/21 A2984 RMK A01 T02420205  RH  080%=      5-min Rain = 0
KWA1 151059Z 20023KT 24/21 A2985 RMK A01 T02420205  RH  080%=      5-min Rain = 0
KWA1 151100Z 19020KT 24/21 A2984 RMK A01 T02410205  RH  080%=      5-min Rain = 0
KWA1 151101Z 19020KT 24/21 A2985 RMK A01 T02410205  RH  080%=      5-min Rain = 0
KWA1 151102Z 20022KT 24/21 A2985 RMK A01 T02410205  RH  080%=      5-min Rain = 0
KWA1 151103Z 20022KT 24/21 A2985 RMK A01 T02410205  RH  080%=      5-min Rain = 0
KWA1 151104Z 20019G24KT 24/21 A2984 RMK A01 T02410205  RH  080%=      5-min Rain = 0
KWA1 151105Z 19019KT 24/21 A2984 RMK A01 T02410205  RH  080%=      5-min Rain = 0
KWA1 151106Z 19020KT 24/21 A2984 RMK A01 T02410205  RH  080%=      5-min Rain = 0
KWA1 151107Z 19020KT 24/21 A2984 RMK A01 T02410205  RH  080%=      5-min Rain = 0
KWA1 151108Z 20018KT 24/21 A2984 RMK A01 T02410205  RH  080%=      5-min Rain = 0
KWA1 151109Z 20019KT 24/21 A2984 RMK A01 T02410205  RH  080%=      5-min Rain = 0
KWA1 151110Z 19025KT 24/21 A2984 RMK A01 T02410205  RH  080%=      5-min Rain = 0
KWA1 151111Z 19020KT 24/21 A2984 RMK A01 T02410205  RH  080%=      5-min Rain = 0
KWA1 151112Z 20019KT 24/21 A2984 RMK A01 T02410205  RH  080%=      5-min Rain = 0
KWA1 151113Z 20021KT 24/21 A2984 RMK A01 T02410205  RH  080%=      5-min Rain = 0
KWA1 151114Z 20017KT 24/20 A2985 RMK A01 T02400204  RH  080%=      5-min Rain = 0
KWA1 151115Z 20020KT 24/21 A2985 RMK A01 T02400205  RH  080%=      5-min Rain = 0
KWA1 151116Z 20020G25KT 24/21 A2984 RMK A01 T02400205  RH  080%=      5-min Rain = 0
KWA1 151117Z 19020G26KT 24/20 A2984 RMK A01 T02410204  RH  080%=      5-min Rain = 0
KWA1 151118Z 19015KT 24/21 A2984 RMK A01 T02410205  RH  080%=      5-min Rain = 0
KWA1 151119Z 19022G29KT 24/20 A2985 RMK A01 T02410204  RH  080%=      5-min Rain = 0
KWA1 151120Z 20020G25KT 24/20 A2985 RMK A01 T02410204  RH  080%=      5-min Rain = 0
KWA1 151121Z 20018G24KT 24/21 A2985 RMK A01 T02420205  RH  080%=      5-min Rain = 0
KWA1 151122Z 19022KT 24/20 A2984 RMK A01 T02410204  RH  080%=      5-min Rain = 0
KWA1 151123Z 20022KT 24/20 A2984 RMK A01 T02410204  RH  080%=      5-min Rain = 0
KWA1 151124Z 20019KT 24/20 A2985 RMK A01 T02420204  RH  080%=      5-min Rain = 0
KWA1 151125Z 20018KT 24/20 A2985 RMK A01 T02420204  RH  080%=      5-min Rain = 0
KWA1 151126Z 20019KT 24/20 A2985 RMK A01 T02410204  RH  080%=      5-min Rain = 0
KWA1 151127Z 19017KT 24/20 A2985 RMK A01 T02410204  RH  080%=      5-min Rain = 0
KWA1 151128Z 19020KT 24/20 A2984 RMK A01 T02410204  RH  080%=      5-min Rain = 0
KWA1 151129Z 20023KT 24/20 A2985 RMK A01 T02410204  RH  080%=      5-min Rain = 0
KWA1 151130Z 20020KT 24/20 A2985 RMK A01 T02420204  RH  079%=      5-min Rain = 0
KWA1 151131Z 20021KT 24/20 A2986 RMK A01 T02420204  RH  079%=      5-min Rain = 0
KWA1 151132Z 20018KT 24/20 A2985 RMK A01 T02420204  RH  079%=      5-min Rain = 0
KWA1 151133Z 20018KT 24/20 A2985 RMK A01 T02410204  RH  079%=      5-min Rain = 0
KWA1 151134Z 19017KT 24/20 A2985 RMK A01 T02410204  RH  079%=      5-min Rain = 0
KWA1 151135Z 19018KT 24/20 A2985 RMK A01 T02410203  RH  079%=      5-min Rain = 0
KWA1 151136Z 20020KT 24/20 A2985 RMK A01 T02410203  RH  079%=      5-min Rain = 0
KWA1 151137Z 20020G25KT 24/20 A2985 RMK A01 T02410203  RH  079%=      5-min Rain = 0
KWA1 151138Z 20019G25KT 24/20 A2985 RMK A01 T02410203  RH  079%=      5-min Rain = 0
KWA1 151139Z 20021KT 24/20 A2985 RMK A01 T02420203  RH  079%=      5-min Rain = 0
KWA1 151140Z 20016KT 24/20 A2985 RMK A01 T02420204  RH  079%=      5-min Rain = 0
KWA1 151141Z 20022KT 24/20 A2985 RMK A01 T02420204  RH  079%=      5-min Rain = 0
KWA1 151142Z 20017KT 24/20 A2986 RMK A01 T02420204  RH  079%=      5-min Rain = 0
KWA1 151143Z 20016KT 24/20 A2986 RMK A01 T02420203  RH  079%=      5-min Rain = 0
KWA1 151144Z 20017G22KT 24/20 A2986 RMK A01 T02410204  RH  079%=      5-min Rain = 0
KWA1 151145Z 20019G25KT 24/20 A2986 RMK A01 T02420203  RH  079%=      5-min Rain = 0
KWA1 151146Z 20013KT 24/20 A2986 RMK A01 T02420204  RH  079%=      5-min Rain = 0
KWA1 151147Z 20014KT 24/20 A2987 RMK A01 T02420204  RH  079%=      5-min Rain = 0
KWA1 151148Z 20014KT 24/20 A2987 RMK A01 T02420204  RH  079%=      5-min Rain = 0
KWA1 151149Z 20010KT 24/20 A2987 RMK A01 T02420204  RH  079%=      5-min Rain = 0
KWA1 151150Z 21010KT 24/20 A2987 RMK A01 T02420204  RH  079%=      5-min Rain = 0
KWA1 151151Z 20014KT 24/20 A2987 RMK A01 T02410203  RH  080%=      5-min Rain = 0
KWA1 151152Z 21014KT 24/20 A2987 RMK A01 T02410204  RH  080%=      5-min Rain = 0
KWA1 151153Z 20016KT 24/20 A2987 RMK A01 T02410204  RH  079%=      5-min Rain = 0
KWA1 151154Z 20015KT 24/20 A2987 RMK A01 T02420204  RH  079%=      5-min Rain = 0
KWA1 151155Z 20014KT 24/20 A2987 RMK A01 T02420203  RH  079%=      5-min Rain = 0
KWA1 151156Z 19015KT 24/20 A2987 RMK A01 T02420204  RH  079%=      5-min Rain = 0
KWA1 151157Z 20012KT 24/20 A2987 RMK A01 T02420204  RH  079%=      5-min Rain = 0
KWA1 151158Z 20011KT 24/20 A2987 RMK A01 T02420204  RH  079%=      5-min Rain = 0
KWA1 151159Z 20011KT 24/20 A2987 RMK A01 T02420204  RH  079%=      5-min Rain = 0
KWA1 151200Z 20015KT 24/20 A2987 RMK A01 T02420204  RH  079%=      5-min Rain = 0
KWA1 151201Z 20016KT 24/20 A2987 RMK A01 T02420204  RH  079%=      5-min Rain = 0
KWA1 151202Z 19015KT 24/20 A2987 RMK A01 T02420204  RH  079%=      5-min Rain = 0
KWA1 151203Z 20011KT 24/20 A2987 RMK A01 T02420204  RH  079%=      5-min Rain = 0
KWA1 151204Z 21013KT 24/20 A2987 RMK A01 T02420204  RH  079%=      5-min Rain = 0
KWA1 151205Z 19012KT 24/20 A2987 RMK A01 T02420204  RH  079%=      5-min Rain = 0
KWA1 151206Z 20012KT 24/20 A2987 RMK A01 T02420204  RH  079%=      5-min Rain = 0
KWA1 151207Z 19008KT 24/20 A2987 RMK A01 T02420204  RH  079%=      5-min Rain = 0
KWA1 151208Z 19010G17KT 24/20 A2987 RMK A01 T02420204  RH  079%=      5-min Rain = 0
KWA1 151209Z 20015KT 24/20 A2987 RMK A01 T02420204  RH  079%=      5-min Rain = 0
KWA1 151210Z 20012KT 24/20 A2987 RMK A01 T02420204  RH  079%=      5-min Rain = 0
KWA1 151211Z 20012KT 24/20 A2987 RMK A01 T02420204  RH  079%=      5-min Rain = 0
KWA1 151212Z 20012KT 24/20 A2987 RMK A01 T02420204  RH  079%=      5-min Rain = 0
KWA1 151213Z 21011KT 24/20 A2987 RMK A01 T02420204  RH  079%=      5-min Rain = 0
KWA1 151214Z 21011KT 24/20 A2988 RMK A01 T02420204  RH  079%=      5-min Rain = 0
KWA1 151215Z 19012KT 24/20 A2988 RMK A01 T02420204  RH  079%=      5-min Rain = 0
KWA1 151216Z 20010KT 24/20 A2987 RMK A01 T02420204  RH  079%=      5-min Rain = 0
KWA1 151217Z 20009KT 24/20 A2987 RMK A01 T02420204  RH  079%=      5-min Rain = 0
KWA1 151218Z 19008KT 24/20 A2987 RMK A01 T02410204  RH  080%=      5-min Rain = 0
KWA1 151219Z 19011KT 24/20 A2988 RMK A01 T02410204  RH  080%=      5-min Rain = 0
KWA1 151220Z 19012KT 24/20 A2987 RMK A01 T02410204  RH  080%=      5-min Rain = 0
KWA1 151221Z 20013KT 24/20 A2987 RMK A01 T02410204  RH  080%=      5-min Rain = 0
KWA1 151222Z 19012KT 24/20 A2987 RMK A01 T02420204  RH  080%=      5-min Rain = 0
KWA1 151223Z 20012KT 24/20 A2987 RMK A01 T02410204  RH  080%=      5-min Rain = 0
KWA1 151224Z 20014KT 24/20 A2987 RMK A01 T02410204  RH  080%=      5-min Rain = 0
KWA1 151225Z 20012KT 24/20 A2987 RMK A01 T02410204  RH  080%=      5-min Rain = 0
KWA1 151226Z 19013KT 24/20 A2987 RMK A01 T02410204  RH  080%=      5-min Rain = 0
KWA1 151227Z 20014KT 24/20 A2987 RMK A01 T02410204  RH  080%=      5-min Rain = 0
KWA1 151228Z 20016KT 24/20 A2987 RMK A01 T02410204  RH  080%=      5-min Rain = 0
KWA1 151229Z 18013KT 24/20 A2987 RMK A01 T02410204  RH  080%=      5-min Rain = 0
KWA1 151230Z 19015KT 24/20 A2987 RMK A01 T02410204  RH  080%=      5-min Rain = 0
KWA1 151231Z 20015KT 24/20 A2987 RMK A01 T02410204  RH  080%=      5-min Rain = 0
KWA1 151232Z 20014KT 24/20 A2987 RMK A01 T02410204  RH  080%=      5-min Rain = 0
KWA1 151233Z 20014KT 24/20 A2987 RMK A01 T02410204  RH  080%=      5-min Rain = 0
KWA1 151234Z 19013KT 24/20 A2987 RMK A01 T02410204  RH  080%=      5-min Rain = 0
KWA1 151235Z 19012KT 24/20 A2987 RMK A01 T02400204  RH  080%=      5-min Rain = 0
KWA1 151236Z 20015KT 24/20 A2987 RMK A01 T02400204  RH  080%=      5-min Rain = 0
KWA1 151237Z 19014KT 24/20 A2987 RMK A01 T02400204  RH  080%=      5-min Rain = 0
KWA1 151238Z 19013KT 24/20 A2987 RMK A01 T02410204  RH  080%=      5-min Rain = 0
KWA1 151239Z 20012KT 24/20 A2987 RMK A01 T02410204  RH  080%=      5-min Rain = 0
KWA1 151240Z 19011KT 24/20 A2987 RMK A01 T02420204  RH  080%=      5-min Rain = 0
KWA1 151241Z 20010KT 24/21 A2987 RMK A01 T02430205  RH  080%=      5-min Rain = 0
KWA1 151242Z 19011KT 24/21 A2987 RMK A01 T02430205  RH  080%=      5-min Rain = 0
KWA1 151243Z 20015KT 24/21 A2987 RMK A01 T02430205  RH  079%=      5-min Rain = 0
KWA1 151244Z 20013KT 24/21 A2987 RMK A01 T02430205  RH  079%=      5-min Rain = 0
KWA1 151245Z 20013KT 24/21 A2987 RMK A01 T02440205  RH  079%=      5-min Rain = 0
KWA1 151246Z 20014KT 24/21 A2987 RMK A01 T02440205  RH  079%=      5-min Rain = 0
KWA1 151247Z 20013KT 25/21 A2987 RMK A01 T02450205  RH  079%=      5-min Rain = 0
KWA1 151248Z 20014KT 25/21 A2987 RMK A01 T02450206  RH  078%=      5-min Rain = 0
KWA1 151249Z 21014KT 25/21 A2987 RMK A01 T02450205  RH  078%=      5-min Rain = 0
KWA1 151250Z 20014KT 25/21 A2987 RMK A01 T02450205  RH  078%=      5-min Rain = 0
KWA1 151251Z 19014KT 25/21 A2987 RMK A01 T02460205  RH  078%=      5-min Rain = 0
KWA1 151252Z 20017KT 25/21 A2987 RMK A01 T02460206  RH  078%=      5-min Rain = 0
KWA1 151253Z 20016KT 25/21 A2987 RMK A01 T02450205  RH  078%=      5-min Rain = 0
KWA1 151254Z 19015KT 25/21 A2987 RMK A01 T02450206  RH  078%=      5-min Rain = 0
KWA1 151255Z 19015KT 25/21 A2987 RMK A01 T02450205  RH  078%=      5-min Rain = 0
KWA1 151256Z 19013KT 25/21 A2987 RMK A01 T02460206  RH  078%=      5-min Rain = 0
KWA1 151257Z 20015KT 25/21 A2987 RMK A01 T02450205  RH  079%=      5-min Rain = 0
KWA1 151258Z 20016KT 25/21 A2987 RMK A01 T02450205  RH  079%=      5-min Rain = 0
KWA1 151259Z 19016KT 24/20 A2987 RMK A01 T02440204  RH  078%=      5-min Rain = 0
KWA1 151300Z 20015KT 25/21 A2988 RMK A01 T02450205  RH  078%=      5-min Rain = 0
KWA1 151301Z 19017KT 25/20 A2987 RMK A01 T02450204  RH  078%=      5-min Rain = 0
KWA1 151302Z 19013KT 25/21 A2987 RMK A01 T02450205  RH  078%=      5-min Rain = 0
KWA1 151303Z 19016KT 25/21 A2987 RMK A01 T02460205  RH  078%=      5-min Rain = 0
KWA1 151304Z 19017KT 25/21 A2987 RMK A01 T02460205  RH  078%=      5-min Rain = 0
KWA1 151305Z 19016KT 25/21 A2987 RMK A01 T02470205  RH  077%=      5-min Rain = 0
KWA1 151306Z 19015KT 25/21 A2987 RMK A01 T02480206  RH  077%=      5-min Rain = 0
KWA1 151307Z 19014KT 25/21 A2987 RMK A01 T02490206  RH  077%=      5-min Rain = 0
KWA1 151308Z 19016KT 25/21 A2987 RMK A01 T02500206  RH  077%=      5-min Rain = 0
KWA1 151309Z 19015KT 25/21 A2987 RMK A01 T02500206  RH  076%=      5-min Rain = 0
KWA1 151310Z 19016KT 25/21 A2987 RMK A01 T02510206  RH  076%=      5-min Rain = 0
KWA1 151311Z 19016KT 25/21 A2987 RMK A01 T02510205  RH  076%=      5-min Rain = 0
KWA1 151312Z 19014KT 25/21 A2987 RMK A01 T02510206  RH  076%=      5-min Rain = 0
KWA1 151313Z 19013KT 25/21 A2987 RMK A01 T02520206  RH  076%=      5-min Rain = 0
KWA1 151314Z 19018KT 25/21 A2987 RMK A01 T02520206  RH  075%=      5-min Rain = 0
KWA1 151315Z 19020KT 25/21 A2987 RMK A01 T02530206  RH  075%=      5-min Rain = 0
KWA1 151316Z 19019KT 25/21 A2987 RMK A01 T02530205  RH  075%=      5-min Rain = 0
KWA1 151317Z 18018KT 25/21 A2988 RMK A01 T02530206  RH  075%=      5-min Rain = 0
KWA1 151318Z 19018KT 25/21 A2988 RMK A01 T02530205  RH  075%=      5-min Rain = 0
KWA1 151319Z 19019KT 25/21 A2988 RMK A01 T02530206  RH  075%=      5-min Rain = 0
KWA1 151320Z 19019KT 25/21 A2988 RMK A01 T02530205  RH  075%=      5-min Rain = 0
KWA1 151321Z 19019KT 25/21 A2988 RMK A01 T02540205  RH  075%=      5-min Rain = 0
KWA1 151322Z 19019KT 25/21 A2988 RMK A01 T02540206  RH  075%=      5-min Rain = 0
KWA1 151323Z 19017G22KT 26/21 A2988 RMK A01 T02550206  RH  074%=      5-min Rain = 0
KWA1 151324Z 20015G20KT 26/21 A2988 RMK A01 T02550206  RH  074%=      5-min Rain = 0
KWA1 151325Z 20017KT 26/21 A2988 RMK A01 T02550206  RH  074%=      5-min Rain = 0
KWA1 151326Z 20018KT 26/21 A2989 RMK A01 T02560205  RH  074%=      5-min Rain = 0
KWA1 151327Z 20016KT 26/21 A2989 RMK A01 T02560206  RH  074%=      5-min Rain = 0
KWA1 151328Z 21019KT 26/21 A2989 RMK A01 T02560206  RH  074%=      5-min Rain = 0
KWA1 151329Z 20018KT 26/21 A2989 RMK A01 T02570206  RH  074%=      5-min Rain = 0
KWA1 151330Z 20017KT 26/21 A2988 RMK A01 T02570207  RH  074%=      5-min Rain = 0
KWA1 151331Z 19020KT 26/21 A2989 RMK A01 T02580206  RH  073%=      5-min Rain = 0
KWA1 151332Z 20019KT 26/21 A2989 RMK A01 T02570205  RH  073%=      5-min Rain = 0
KWA1 151333Z 19020KT 26/21 A2989 RMK A01 T02580206  RH  073%=      5-min Rain = 0
KWA1 151334Z 20021KT 26/21 A2989 RMK A01 T02580205  RH  072%=      5-min Rain = 0
KWA1 151335Z 20018KT 26/20 A2988 RMK A01 T02580204  RH  072%=      5-min Rain = 0
KWA1 151336Z 20019KT 26/21 A2988 RMK A01 T02580206  RH  073%=      5-min Rain = 0
KWA1 151337Z 20018G23KT 26/21 A2989 RMK A01 T02590206  RH  072%=      5-min Rain = 0
KWA1 151338Z 20019KT 26/21 A2989 RMK A01 T02590206  RH  072%=      5-min Rain = 0
KWA1 151339Z 19019KT 26/21 A2989 RMK A01 T02590206  RH  072%=      5-min Rain = 0
KWA1 151340Z 19019KT 26/21 A2988 RMK A01 T02590206  RH  072%=      5-min Rain = 0
KWA1 151341Z 18019KT 26/21 A2988 RMK A01 T02590205  RH  072%=      5-min Rain = 0
KWA1 151342Z 19016KT 26/21 A2988 RMK A01 T02590206  RH  072%=      5-min Rain = 0
KWA1 151343Z 18017KT 26/21 A2988 RMK A01 T02590206  RH  073%=      5-min Rain = 0
KWA1 151344Z 19019KT 26/21 A2988 RMK A01 T02600206  RH  072%=      5-min Rain = 0
KWA1 151345Z 18019KT 26/21 A2988 RMK A01 T02600206  RH  072%=      5-min Rain = 0
KWA1 151346Z 18017KT 26/21 A2988 RMK A01 T02600206  RH  072%=      5-min Rain = 0
KWA1 151347Z 19016KT 26/21 A2988 RMK A01 T02600206  RH  072%=      5-min Rain = 0
KWA1 151348Z 19019KT 26/21 A2988 RMK A01 T02610205  RH  071%=      5-min Rain = 0
KWA1 151349Z 20021KT 26/20 A2988 RMK A01 T02610204  RH  071%=      5-min Rain = 0
KWA1 151350Z 20019G24KT 26/21 A2988 RMK A01 T02610205  RH  071%=      5-min Rain = 0
KWA1 151351Z 19020KT 26/20 A2988 RMK A01 T02610204  RH  071%=      5-min Rain = 0
KWA1 151352Z 19018KT 26/21 A2988 RMK A01 T02610205  RH  071%=      5-min Rain = 0
KWA1 151353Z 20020KT 26/21 A2988 RMK A01 T02610205  RH  071%=      5-min Rain = 0
KWA1 151354Z 19021KT 26/21 A2988 RMK A01 T02620205  RH  071%=      5-min Rain = 0
KWA1 151355Z 19020KT 26/21 A2988 RMK A01 T02620205  RH  071%=      5-min Rain = 0
KWA1 151356Z 19019KT 26/21 A2988 RMK A01 T02620205  RH  071%=      5-min Rain = 0
KWA1 151357Z 20019KT 26/21 A2988 RMK A01 T02630205  RH  071%=      5-min Rain = 0
KWA1 151358Z 20019KT 26/21 A2988 RMK A01 T02640206  RH  070%=      5-min Rain = 0
KWA1 151359Z 19019G24KT 26/21 A2988 RMK A01 T02640206  RH  070%=      5-min Rain = 0
KWA1 151400Z 19022KT 26/21 A2988 RMK A01 T02640205  RH  070%=      5-min Rain = 0
KWA1 151401Z 19019KT 26/20 A2988 RMK A01 T02630204  RH  070%=      5-min Rain = 0
KWA1 151402Z 19021KT 26/21 A2988 RMK A01 T02620205  RH  071%=      5-min Rain = 0
KWA1 151403Z 20019KT 26/20 A2988 RMK A01 T02620204  RH  070%=      5-min Rain = 0
KWA1 151404Z 20020G25KT 26/21 A2988 RMK A01 T02630205  RH  070%=      5-min Rain = 0
KWA1 151405Z 20020G25KT 26/20 A2988 RMK A01 T02640204  RH  069%=      5-min Rain = 0
KWA1 151406Z 20022KT 26/20 A2988 RMK A01 T02640204  RH  070%=      5-min Rain = 0
KWA1 151407Z 20020KT 26/20 A2988 RMK A01 T02640204  RH  070%=      5-min Rain = 0
KWA1 151408Z 19021KT 27/20 A2988 RMK A01 T02650204  RH  069%=      5-min Rain = 0
KWA1 151409Z 19020KT 27/20 A2988 RMK A01 T02650204  RH  069%=      5-min Rain = 0
KWA1 151410Z 19021KT 27/20 A2988 RMK A01 T02660204  RH  069%=      5-min Rain = 0
KWA1 151411Z 19020KT 27/20 A2988 RMK A01 T02660204  RH  069%=      5-min Rain = 0
KWA1 151412Z 19019KT 27/20 A2988 RMK A01 T02670204  RH  068%=      5-min Rain = 0
KWA1 151413Z 18020KT 27/20 A2988 RMK A01 T02670204  RH  068%=      5-min Rain = 0
KWA1 151414Z 19019KT 27/21 A2988 RMK A01 T02670205  RH  069%=      5-min Rain = 0
KWA1 151415Z 19017KT 27/21 A2988 RMK A01 T02680205  RH  068%=      5-min Rain = 0
KWA1 151416Z 19019KT 27/20 A2988 RMK A01 T02700204  RH  067%=      5-min Rain = 0
KWA1 151417Z 20022KT 27/20 A2988 RMK A01 T02700204  RH  067%=      5-min Rain = 0
KWA1 151418Z 19020KT 27/20 A2988 RMK A01 T02700204  RH  067%=      5-min Rain = 0
KWA1 151419Z 19019KT 27/20 A2988 RMK A01 T02690204  RH  067%=      5-min Rain = 0
KWA1 151420Z 19019KT 27/21 A2988 RMK A01 T02690205  RH  068%=      5-min Rain = 0
KWA1 151421Z 20017KT 27/20 A2988 RMK A01 T02690203  RH  067%=      5-min Rain = 0
KWA1 151422Z 19017KT 27/20 A2988 RMK A01 T02700204  RH  067%=      5-min Rain = 0
KWA1 151423Z 20018KT 27/21 A2988 RMK A01 T02710206  RH  067%=      5-min Rain = 0
KWA1 151424Z 20019KT 27/20 A2988 RMK A01 T02730204  RH  066%=      5-min Rain = 0
KWA1 151425Z 19020KT 27/20 A2988 RMK A01 T02720204  RH  066%=      5-min Rain = 0
KWA1 151426Z 20018KT 27/20 A2988 RMK A01 T02720202  RH  066%=      5-min Rain = 0
KWA1 151427Z 20017KT 27/20 A2988 RMK A01 T02710204  RH  067%=      5-min Rain = 0
KWA1 151428Z 21019KT 27/20 A2988 RMK A01 T02710203  RH  066%=      5-min Rain = 0
KWA1 151429Z 19017KT 27/20 A2988 RMK A01 T02720203  RH  066%=      5-min Rain = 0
KWA1 151430Z 19014KT 28/21 A2988 RMK A01 T02750205  RH  066%=      5-min Rain = 0
KWA1 151431Z 19018KT 28/21 A2988 RMK A01 T02780205  RH  064%=      5-min Rain = 0
KWA1 151432Z 19016KT 28/20 A2988 RMK A01 T02760204  RH  065%=      5-min Rain = 0
KWA1 151433Z 18017KT 28/20 A2988 RMK A01 T02760204  RH  065%=      5-min Rain = 0
KWA1 151434Z 19017KT 28/20 A2988 RMK A01 T02760203  RH  065%=      5-min Rain = 0
KWA1 151435Z 20018KT 28/20 A2988 RMK A01 T02760202  RH  064%=      5-min Rain = 0
KWA1 151436Z 20016KT 28/20 A2988 RMK A01 T02770201  RH  063%=      5-min Rain = 0
KWA1 151437Z 19018KT 28/20 A2988 RMK A01 T02790203  RH  063%=      5-min Rain = 0
KWA1 151438Z 18017KT 28/20 A2988 RMK A01 T02790204  RH  064%=      5-min Rain = 0
KWA1 151439Z 18018KT 28/20 A2987 RMK A01 T02780204  RH  064%=      5-min Rain = 0
KWA1 151440Z 18018KT 28/20 A2987 RMK A01 T02770203  RH  064%=      5-min Rain = 0
KWA1 151441Z 20013KT 28/20 A2988 RMK A01 T02760204  RH  065%=      5-min Rain = 0
KWA1 151442Z 19015KT 28/20 A2988 RMK A01 T02800204  RH  064%=      5-min Rain = 0
KWA1 151443Z 19018KT 28/20 A2988 RMK A01 T02810202  RH  062%=      5-min Rain = 0
KWA1 151444Z 19019KT 28/20 A2988 RMK A01 T02770199  RH  062%=      5-min Rain = 0
KWA1 151445Z 20016G24KT 28/20 A2988 RMK A01 T02750201  RH  064%=      5-min Rain = 0
KWA1 151446Z 19021KT 28/20 A2987 RMK A01 T02770199  RH  063%=      5-min Rain = 0
KWA1 151447Z 20019KT 28/20 A2987 RMK A01 T02780200  RH  063%=      5-min Rain = 0
KWA1 151448Z 20019KT 28/20 A2987 RMK A01 T02780199  RH  062%=      5-min Rain = 0
KWA1 151449Z 20018KT 28/20 A2987 RMK A01 T02780198  RH  062%=      5-min Rain = 0
KWA1 151450Z 20018KT 28/20 A2987 RMK A01 T02790201  RH  063%=      5-min Rain = 0
KWA1 151451Z 20018KT 28/20 A2987 RMK A01 T02780200  RH  063%=      5-min Rain = 0
KWA1 151452Z 20017KT 28/20 A2987 RMK A01 T02780201  RH  063%=      5-min Rain = 0
KWA1 151453Z 19019KT 28/20 A2987 RMK A01 T02800203  RH  063%=      5-min Rain = 0
KWA1 151454Z 19017KT 28/20 A2987 RMK A01 T02810202  RH  062%=      5-min Rain = 0
KWA1 151455Z 20020KT 28/20 A2987 RMK A01 T02830198  RH  060%=      5-min Rain = 0
KWA1 151456Z 19021KT 28/20 A2987 RMK A01 T02820198  RH  061%=      5-min Rain = 0
KWA1 151457Z 19019KT 28/20 A2987 RMK A01 T02810199  RH  061%=      5-min Rain = 0
KWA1 151458Z 18017KT 28/20 A2987 RMK A01 T02830200  RH  061%=      5-min Rain = 0
KWA1 151459Z 20018KT 28/20 A2987 RMK A01 T02830201  RH  061%=      5-min Rain = 0
KWA1 151500Z 19018KT 28/20 A2987 RMK A01 T02840201  RH  061%=      5-min Rain = 0
KWA1 151501Z 19018KT 28/20 A2987 RMK A01 T02840202  RH  061%=      5-min Rain = 0
KWA1 151502Z 19018KT 29/20 A2987 RMK A01 T02870203  RH  061%=      5-min Rain = 0
KWA1 151503Z 20016KT 29/20 A2987 RMK A01 T02860202  RH  060%=      5-min Rain = 0
KWA1 151504Z 20017KT 29/20 A2987 RMK A01 T02860202  RH  060%=      5-min Rain = 0
KWA1 151505Z 20018KT 29/20 A2987 RMK A01 T02860202  RH  060%=      5-min Rain = 0
KWA1 151506Z 19017KT 29/20 A2987 RMK A01 T02860202  RH  060%=      5-min Rain = 0
KWA1 151507Z 19019KT 29/20 A2987 RMK A01 T02870202  RH  060%=      5-min Rain = 0
KWA1 151508Z 19018KT 29/20 A2987 RMK A01 T02860201  RH  060%=      5-min Rain = 0
KWA1 151509Z 20017KT 29/20 A2987 RMK A01 T02850202  RH  061%=      5-min Rain = 0
KWA1 151510Z 20017KT 29/20 A2987 RMK A01 T02850204  RH  061%=      5-min Rain = 0
KWA1 151511Z 19017KT 29/20 A2987 RMK A01 T02880204  RH  061%=      5-min Rain = 0
KWA1 151512Z 18016KT 29/21 A2987 RMK A01 T02890205  RH  060%=      5-min Rain = 0
KWA1 151513Z 19018KT 29/20 A2987 RMK A01 T02870204  RH  061%=      5-min Rain = 0
KWA1 151514Z 20015KT 29/20 A2987 RMK A01 T02860204  RH  061%=      5-min Rain = 0
KWA1 151515Z 19020KT 29/20 A2987 RMK A01 T02910204  RH  060%=      5-min Rain = 0
KWA1 151516Z 20018KT 29/20 A2987 RMK A01 T02910203  RH  059%=      5-min Rain = 0
KWA1 151517Z 21018KT 29/20 A2987 RMK A01 T02900203  RH  059%=      5-min Rain = 0
KWA1 151518Z 21017KT 29/20 A2987 RMK A01 T02900203  RH  059%=      5-min Rain = 0
KWA1 151519Z 21016G22KT 29/20 A2987 RMK A01 T02890201  RH  059%=      5-min Rain = 0
KWA1 151520Z 20020KT 29/20 A2987 RMK A01 T02880201  RH  059%=      5-min Rain = 0
KWA1 151521Z 20016KT 29/20 A2987 RMK A01 T02890199  RH  058%=      5-min Rain = 0
KWA1 151522Z 21017KT 29/20 A2987 RMK A01 T02880201  RH  059%=      5-min Rain = 0
KWA1 151523Z 20017KT 29/20 A2987 RMK A01 T02880200  RH  059%=      5-min Rain = 0
KWA1 151524Z 19018KT 29/20 A2987 RMK A01 T02890200  RH  059%=      5-min Rain = 0
KWA1 151525Z 20019KT 29/20 A2987 RMK A01 T02900201  RH  059%=      5-min Rain = 0
KWA1 151526Z 20020KT 29/20 A2987 RMK A01 T02910200  RH  058%=      5-min Rain = 0
KWA1 151527Z 20018KT 29/20 A2987 RMK A01 T02900201  RH  059%=      5-min Rain = 0
KWA1 151528Z 19018KT 29/20 A2987 RMK A01 T02900201  RH  059%=      5-min Rain = 0
KWA1 151529Z 21020KT 29/20 A2987 RMK A01 T02910199  RH  058%=      5-min Rain = 0
KWA1 151530Z 21016KT 29/20 A2987 RMK A01 T02910197  RH  057%=      5-min Rain = 0
KWA1 151531Z 21016KT 29/20 A2987 RMK A01 T02920200  RH  058%=      5-min Rain = 0
KWA1 151532Z 21015G22KT 29/20 A2987 RMK A01 T02930200  RH  057%=      5-min Rain = 0
KWA1 151533Z 20019KT 29/20 A2987 RMK A01 T02930200  RH  057%=      5-min Rain = 0
KWA1 151534Z 19017KT 29/20 A2987 RMK A01 T02930200  RH  058%=      5-min Rain = 0
KWA1 151535Z 20018KT 29/20 A2987 RMK A01 T02920201  RH  058%=      5-min Rain = 0
KWA1 151536Z 21016KT 30/20 A2987 RMK A01 T02950203  RH  058%=      5-min Rain = 0
KWA1 151537Z 22015KT 30/20 A2987 RMK A01 T02960200  RH  056%=      5-min Rain = 0
KWA1 151538Z 21016KT 30/20 A2987 RMK A01 T02960200  RH  056%=      5-min Rain = 0
KWA1 151539Z 20015KT 29/20 A2987 RMK A01 T02940203  RH  058%=      5-min Rain = 0
KWA1 151540Z 19016KT 30/20 A2987 RMK A01 T02970203  RH  057%=      5-min Rain = 0
KWA1 151541Z 20016KT 30/20 A2987 RMK A01 T02990202  RH  056%=      5-min Rain = 0
KWA1 151542Z 19015KT 30/20 A2987 RMK A01 T02990201  RH  056%=      5-min Rain = 0
KWA1 151543Z 20015KT 30/20 A2987 RMK A01 T02970203  RH  057%=      5-min Rain = 0
KWA1 151544Z 19017G23KT 30/20 A2986 RMK A01 T02980202  RH  056%=      5-min Rain = 0
KWA1 151545Z 20018KT 30/20 A2986 RMK A01 T03000203  RH  056%=      5-min Rain = 0
KWA1 151546Z 21017KT 30/20 A2986 RMK A01 T03000203  RH  056%=      5-min Rain = 0
KWA1 151547Z 21016KT 30/20 A2987 RMK A01 T02990203  RH  056%=      5-min Rain = 0
KWA1 151548Z 21019G24KT 30/20 A2986 RMK A01 T02980201  RH  056%=      5-min Rain = 0
KWA1 151549Z 21017KT 30/20 A2987 RMK A01 T02990199  RH  055%=      5-min Rain = 0
KWA1 151550Z 21015KT 30/20 A2987 RMK A01 T02990201  RH  056%=      5-min Rain = 0
KWA1 151551Z 21016KT 30/20 A2987 RMK A01 T03010202  RH  055%=      5-min Rain = 0
KWA1 151552Z 20021KT 30/20 A2986 RMK A01 T03030199  RH  054%=      5-min Rain = 0
KWA1 151553Z 20019KT 30/20 A2987 RMK A01 T03000196  RH  054%=      5-min Rain = 0
KWA1 151554Z 20018KT 30/20 A2987 RMK A01 T02970196  RH  055%=      5-min Rain = 0
KWA1 151555Z 20017KT 30/20 A2987 RMK A01 T02960200  RH  056%=      5-min Rain = 0
KWA1 151556Z 20017KT 30/20 A2987 RMK A01 T03000199  RH  055%=      5-min Rain = 0
KWA1 151557Z 21017KT 30/20 A2987 RMK A01 T03020198  RH  054%=      5-min Rain = 0
KWA1 151558Z 21017KT 30/20 A2987 RMK A01 T03040198  RH  053%=      5-min Rain = 0
KWA1 151559Z 21018KT 31/20 A2987 RMK A01 T03050197  RH  052%=      5-min Rain = 0
KWA1 151600Z 21019KT 31/20 A2987 RMK A01 T03060196  RH  052%=      5-min Rain = 0
KWA1 151601Z 21018KT 31/20 A2987 RMK A01 T03060196  RH  052%=      5-min Rain = 0
KWA1 151602Z 21018KT 31/20 A2987 RMK A01 T03050196  RH  052%=      5-min Rain = 0
KWA1 151603Z 21016KT 30/20 A2987 RMK A01 T03040195  RH  052%=      5-min Rain = 0
KWA1 151604Z 21017KT 30/20 A2987 RMK A01 T03040198  RH  053%=      5-min Rain = 0
KWA1 151605Z 20015KT 31/20 A2987 RMK A01 T03080202  RH  053%=      5-min Rain = 0
KWA1 151606Z 19015KT 31/20 A2987 RMK A01 T03110203  RH  053%=      5-min Rain = 0
KWA1 151607Z 18015KT 31/20 A2987 RMK A01 T03100204  RH  053%=      5-min Rain = 0
KWA1 151608Z 18014G19KT 31/20 A2987 RMK A01 T03070200  RH  053%=      5-min Rain = 0
KWA1 151609Z 19017KT 31/20 A2987 RMK A01 T03060200  RH  053%=      5-min Rain = 0
KWA1 151610Z 20016KT 31/20 A2987 RMK A01 T03080198  RH  052%=      5-min Rain = 0
KWA1 151611Z 20014KT 31/20 A2987 RMK A01 T03070198  RH  052%=      5-min Rain = 0
KWA1 151612Z 20016KT 31/20 A2987 RMK A01 T03060197  RH  052%=      5-min Rain = 0
KWA1 151613Z 21011KT 31/20 A2987 RMK A01 T03060196  RH  052%=      5-min Rain = 0
KWA1 151614Z 20015G21KT 31/20 A2987 RMK A01 T03080200  RH  053%=      5-min Rain = 0
KWA1 151615Z 20017KT 31/20 A2987 RMK A01 T03100197  RH  051%=      5-min Rain = 0
KWA1 151616Z 19013G18KT 31/20 A2987 RMK A01 T03080197  RH  052%=      5-min Rain = 0
KWA1 151617Z 18016KT 31/20 A2987 RMK A01 T03070196  RH  052%=      5-min Rain = 0
KWA1 151618Z 18017KT 31/20 A2987 RMK A01 T03070197  RH  052%=      5-min Rain = 0
KWA1 151619Z 19013KT 31/20 A2987 RMK A01 T03070200  RH  053%=      5-min Rain = 0
KWA1 151620Z 18015KT 31/20 A2987 RMK A01 T03100199  RH  052%=      5-min Rain = 0
KWA1 151621Z 21014KT 31/20 A2987 RMK A01 T03120201  RH  052%=      5-min Rain = 0
KWA1 151622Z 19014KT 32/20 A2987 RMK A01 T03160201  RH  050%=      5-min Rain = 0
KWA1 151623Z 20015KT 32/20 A2987 RMK A01 T03160199  RH  050%=      5-min Rain = 0
KWA1 151624Z 21016KT 32/20 A2987 RMK A01 T03160199  RH  050%=      5-min Rain = 0
KWA1 151625Z 20015KT 31/20 A2987 RMK A01 T03140198  RH  050%=      5-min Rain = 0
KWA1 151626Z 20017KT 31/20 A2987 RMK A01 T03130197  RH  050%=      5-min Rain = 0
KWA1 151627Z 20016KT 31/20 A2987 RMK A01 T03140197  RH  050%=      5-min Rain = 0
KWA1 151628Z 19013KT 32/20 A2987 RMK A01 T03160200  RH  050%=      5-min Rain = 0
KWA1 151629Z 20016KT 32/20 A2987 RMK A01 T03170201  RH  050%=      5-min Rain = 0
KWA1 151630Z 19014KT 32/20 A2987 RMK A01 T03170200  RH  050%=      5-min Rain = 0
KWA1 151631Z 20015KT 32/20 A2987 RMK A01 T03160199  RH  050%=      5-min Rain = 0
KWA1 151632Z 19014KT 32/20 A2987 RMK A01 T03180201  RH  050%=      5-min Rain = 0
KWA1 151633Z 19016KT 32/20 A2987 RMK A01 T03190198  RH  049%=      5-min Rain = 0
KWA1 151634Z 18014KT 32/20 A2987 RMK A01 T03160200  RH  050%=      5-min Rain = 0
KWA1 151635Z 19014KT 32/20 A2987 RMK A01 T03170200  RH  050%=      5-min Rain = 0
KWA1 151636Z 21014KT 32/20 A2987 RMK A01 T03180198  RH  049%=      5-min Rain = 0
KWA1 151637Z 21015KT 32/20 A2987 RMK A01 T03170197  RH  049%=      5-min Rain = 0
KWA1 151638Z 21014KT 32/20 A2987 RMK A01 T03170197  RH  049%=      5-min Rain = 0
KWA1 151639Z 19014KT 32/20 A2987 RMK A01 T03180199  RH  049%=      5-min Rain = 0
KWA1 151640Z 18015KT 32/20 A2987 RMK A01 T03170199  RH  050%=      5-min Rain = 0
KWA1 151641Z 19016KT 32/20 A2987 RMK A01 T03160201  RH  050%=      5-min Rain = 0
KWA1 151642Z 20016KT 32/20 A2987 RMK A01 T03180199  RH  049%=      5-min Rain = 0
KWA1 151643Z 19016KT 32/20 A2987 RMK A01 T03190196  RH  048%=      5-min Rain = 0
KWA1 151644Z 21014KT 32/20 A2987 RMK A01 T03220200  RH  048%=      5-min Rain = 0
KWA1 151645Z 21016KT 32/20 A2987 RMK A01 T03230198  RH  047%=      5-min Rain = 0
KWA1 151646Z 21017KT 32/20 A2987 RMK A01 T03210197  RH  048%=      5-min Rain = 0
KWA1 151647Z 21016KT 32/20 A2987 RMK A01 T03210197  RH  048%=      5-min Rain = 0
KWA1 151648Z 20015KT 32/20 A2987 RMK A01 T03240196  RH  047%=      5-min Rain = 0
KWA1 151649Z 20014KT 32/20 A2987 RMK A01 T03230198  RH  048%=      5-min Rain = 0
KWA1 151650Z 20014KT 32/20 A2987 RMK A01 T03210199  RH  049%=      5-min Rain = 0
KWA1 151651Z 20014KT 32/20 A2987 RMK A01 T03220202  RH  049%=      5-min Rain = 0
KWA1 151652Z 19013KT 32/20 A2987 RMK A01 T03220200  RH  048%=      5-min Rain = 0
KWA1 151653Z 19016KT 32/20 A2987 RMK A01 T03220200  RH  049%=      5-min Rain = 0
KWA1 151654Z 21016KT 32/20 A2987 RMK A01 T03220197  RH  048%=      5-min Rain = 0
KWA1 151655Z 22013KT 32/19 A2987 RMK A01 T03210191  RH  046%=      5-min Rain = 0
KWA1 151656Z 19012KT 32/20 A2987 RMK A01 T03190195  RH  048%=      5-min Rain = 0
KWA1 151657Z 18013KT 32/20 A2987 RMK A01 T03220202  RH  049%=      5-min Rain = 0
KWA1 151658Z 17014KT 32/20 A2987 RMK A01 T03230202  RH  049%=      5-min Rain = 0
KWA1 151659Z 18019KT 32/20 A2987 RMK A01 T03230201  RH  048%=      5-min Rain = 0
KWA1 151700Z 20021G27KT 32/19 A2987 RMK A01 T03240194  RH  046%=      5-min Rain = 0
KWA1 151701Z 21015KT 33/19 A2987 RMK A01 T03260194  RH  046%=      5-min Rain = 0
KWA1 151702Z 22015G20KT 32/19 A2987 RMK A01 T03240191  RH  046%=      5-min Rain = 0
KWA1 151703Z 22014G19KT 32/19 A2987 RMK A01 T03220194  RH  047%=      5-min Rain = 0
KWA1 151704Z 19019KT 32/20 A2987 RMK A01 T03230195  RH  047%=      5-min Rain = 0
KWA1 151705Z 19015KT 32/19 A2987 RMK A01 T03240193  RH  046%=      5-min Rain = 0
KWA1 151706Z 20011KT 32/19 A2987 RMK A01 T03210192  RH  047%=      5-min Rain = 0
KWA1 151707Z 23012G18KT 32/20 A2987 RMK A01 T03220197  RH  048%=      5-min Rain = 0
KWA1 151708Z 22013KT 32/20 A2987 RMK A01 T03240198  RH  047%=      5-min Rain = 0
KWA1 151709Z 20018KT 33/20 A2987 RMK A01 T03260197  RH  046%=      5-min Rain = 0
KWA1 151710Z 21018KT 33/20 A2987 RMK A01 T03320197  RH  045%=      5-min Rain = 0
KWA1 151711Z 21018KT 33/19 A2987 RMK A01 T03290194  RH  045%=      5-min Rain = 0
KWA1 151712Z 20016KT 33/19 A2987 RMK A01 T03290191  RH  044%=      5-min Rain = 0
KWA1 151713Z 19013KT 33/19 A2987 RMK A01 T03270191  RH  045%=      5-min Rain = 0
KWA1 151714Z 19016KT 33/19 A2987 RMK A01 T03280191  RH  044%=      5-min Rain = 0
KWA1 151715Z 20015KT 33/19 A2987 RMK A01 T03270192  RH  045%=      5-min Rain = 0
KWA1 151716Z 20018G23KT 33/20 A2987 RMK A01 T03270196  RH  046%=      5-min Rain = 0
KWA1 151717Z 19016KT 33/20 A2987 RMK A01 T03290197  RH  046%=      5-min Rain = 0
KWA1 151718Z 19014KT 33/19 A2987 RMK A01 T03310194  RH  045%=      5-min Rain = 0
KWA1 151719Z 20017G23KT 33/20 A2987 RMK A01 T03320198  RH  045%=      5-min Rain = 0
KWA1 151720Z 20020KT 33/19 A2987 RMK A01 T03320193  RH  044%=      5-min Rain = 0
KWA1 151721Z 20018KT 33/19 A2987 RMK A01 T03290193  RH  045%=      5-min Rain = 0
KWA1 151722Z 20015KT 33/19 A2987 RMK A01 T03290192  RH  044%=      5-min Rain = 0
KWA1 151723Z 21014G19KT 33/19 A2987 RMK A01 T03290191  RH  044%=      5-min Rain = 0
KWA1 151724Z 21016KT 33/19 A2987 RMK A01 T03290194  RH  045%=      5-min Rain = 0
KWA1 151725Z 22016KT 33/20 A2987 RMK A01 T03330197  RH  045%=      5-min Rain = 0
KWA1 151726Z 20012KT 33/20 A2987 RMK A01 T03330196  RH  045%=      5-min Rain = 0
KWA1 151727Z 21015KT 33/19 A2987 RMK A01 T03320194  RH  044%=      5-min Rain = 0
KWA1 151728Z 19013KT 33/19 A2987 RMK A01 T03320192  RH  044%=      5-min Rain = 0
KWA1 151729Z 20017KT 33/19 A2987 RMK A01 T03310194  RH  045%=      5-min Rain = 0
KWA1 151730Z 19018KT 33/20 A2987 RMK A01 T03320197  RH  045%=      5-min Rain = 0
KWA1 151731Z 19017KT 33/20 A2987 RMK A01 T03310195  RH  045%=      5-min Rain = 0
KWA1 151732Z 19013KT 33/20 A2987 RMK A01 T03300197  RH  046%=      5-min Rain = 0
KWA1 151733Z 19017KT 33/20 A2987 RMK A01 T03330197  RH  045%=      5-min Rain = 0
KWA1 151734Z 19018KT 33/19 A2986 RMK A01 T03340193  RH  043%=      5-min Rain = 0
KWA1 151735Z 20018KT 33/20 A2987 RMK A01 T03340195  RH  044%=      5-min Rain = 0
KWA1 151736Z 20012G17KT 33/19 A2987 RMK A01 T03320192  RH  044%=      5-min Rain = 0
KWA1 151737Z 21014G19KT 33/20 A2987 RMK A01 T03280196  RH  046%=      5-min Rain = 0
KWA1 151738Z 22017KT 33/19 A2987 RMK A01 T03320194  RH  044%=      5-min Rain = 0
KWA1 151739Z 22017KT 34/19 A2987 RMK A01 T03360193  RH  043%=      5-min Rain = 0
KWA1 151740Z 22014KT 34/19 A2987 RMK A01 T03360192  RH  043%=      5-min Rain = 0
KWA1 151741Z 21011KT 33/19 A2987 RMK A01 T03340192  RH  043%=      5-min Rain = 0
KWA1 151742Z 21012G18KT 33/19 A2987 RMK A01 T03310193  RH  044%=      5-min Rain = 0
KWA1 151743Z 21016KT 33/19 A2987 RMK A01 T03320193  RH  044%=      5-min Rain = 0
KWA1 151744Z 21016KT 33/20 A2987 RMK A01 T03340195  RH  044%=      5-min Rain = 0
KWA1 151745Z 20014KT 34/20 A2987 RMK A01 T03360198  RH  044%=      5-min Rain = 0
KWA1 151746Z 19017KT 34/20 A2987 RMK A01 T03390198  RH  044%=      5-min Rain = 0
KWA1 151747Z 19015KT 34/20 A2986 RMK A01 T03380195  RH  043%=      5-min Rain = 0
KWA1 151748Z 19012KT 34/19 A2986 RMK A01 T03360194  RH  043%=      5-min Rain = 0
KWA1 151749Z 20019G24KT 34/20 A2986 RMK A01 T03350196  RH  044%=      5-min Rain = 0
KWA1 151750Z 21018KT 34/20 A2986 RMK A01 T03370197  RH  044%=      5-min Rain = 0
KWA1 151751Z 21016KT 34/20 A2987 RMK A01 T03380195  RH  043%=      5-min Rain = 0
KWA1 151752Z 21018KT 34/19 A2986 RMK A01 T03370194  RH  043%=      5-min Rain = 0
KWA1 151753Z 21014KT 34/19 A2987 RMK A01 T03360191  RH  042%=      5-min Rain = 0
KWA1 151754Z 18011KT 33/19 A2986 RMK A01 T03310190  RH  043%=      5-min Rain = 0
KWA1 151755Z 21016KT 33/20 A2986 RMK A01 T03320195  RH  045%=      5-min Rain = 0
KWA1 151756Z 20017KT 34/20 A2986 RMK A01 T03390196  RH  043%=      5-min Rain = 0
KWA1 151757Z 20015KT 34/19 A2986 RMK A01 T03370193  RH  043%=      5-min Rain = 0
KWA1 151758Z 20016KT 33/19 A2986 RMK A01 T03340192  RH  043%=      5-min Rain = 0
KWA1 151759Z 18014KT 33/19 A2986 RMK A01 T03340193  RH  044%=      5-min Rain = 0
KWA1 151800Z 20013KT 34/20 A2986 RMK A01 T03360195  RH  043%=      5-min Rain = 0
KWA1 151801Z 19013KT 34/20 A2986 RMK A01 T03400198  RH  043%=      5-min Rain = 0
KWA1 151802Z 21013KT 34/20 A2986 RMK A01 T03420197  RH  043%=      5-min Rain = 0
KWA1 151803Z 20020KT 34/20 A2986 RMK A01 T03400196  RH  043%=      5-min Rain = 0
KWA1 151804Z 20016KT 34/19 A2986 RMK A01 T03410193  RH  042%=      5-min Rain = 0
KWA1 151805Z 21013KT 34/20 A2986 RMK A01 T03390195  RH  043%=      5-min Rain = 0
KWA1 151806Z 22011KT 34/20 A2986 RMK A01 T03390196  RH  043%=      5-min Rain = 0
KWA1 151807Z 21012KT 34/20 A2986 RMK A01 T03390197  RH  043%=      5-min Rain = 0
KWA1 151808Z 18015KT 34/20 A2986 RMK A01 T03430197  RH  042%=      5-min Rain = 0
KWA1 151809Z 19016KT 34/20 A2986 RMK A01 T03400196  RH  043%=      5-min Rain = 0
KWA1 151810Z 20019KT 34/20 A2986 RMK A01 T03410199  RH  044%=      5-min Rain = 0
KWA1 151811Z 20015KT 34/20 A2986 RMK A01 T03420199  RH  043%=      5-min Rain = 0
KWA1 151812Z 18017KT 34/20 A2986 RMK A01 T03420197  RH  043%=      5-min Rain = 0
KWA1 151813Z 18014KT 34/20 A2986 RMK A01 T03380197  RH  043%=      5-min Rain = 0
KWA1 151814Z 20017G22KT 34/19 A2985 RMK A01 T03370194  RH  043%=      5-min Rain = 0
KWA1 151815Z 21018KT 34/19 A2985 RMK A01 T03390190  RH  042%=      5-min Rain = 0
KWA1 151816Z 21018KT 34/19 A2986 RMK A01 T03420190  RH  041%=      5-min Rain = 0
KWA1 151817Z 21017KT 34/19 A2986 RMK A01 T03430191  RH  041%=      5-min Rain = 0
KWA1 151818Z 21014KT 34/19 A2986 RMK A01 T03430190  RH  040%=      5-min Rain = 0
KWA1 151819Z 20013KT 34/19 A2986 RMK A01 T03410190  RH  041%=      5-min Rain = 0
KWA1 151820Z 19010KT 34/19 A2985 RMK A01 T03380188  RH  041%=      5-min Rain = 0
KWA1 151821Z 20011KT 34/19 A2985 RMK A01 T03360191  RH  043%=      5-min Rain = 0
KWA1 151822Z 20016G21KT 34/19 A2985 RMK A01 T03420193  RH  042%=      5-min Rain = 0
KWA1 151823Z 21016KT 35/19 A2985 RMK A01 T03460192  RH  040%=      5-min Rain = 0
KWA1 151824Z 21017KT 35/19 A2985 RMK A01 T03460192  RH  040%=      5-min Rain = 0
KWA1 151825Z 19015KT 35/19 A2985 RMK A01 T03450186  RH  039%=      5-min Rain = 0
KWA1 151826Z 20013KT 34/18 A2985 RMK A01 T03400184  RH  040%=      5-min Rain = 0
KWA1 151827Z 20011KT 34/18 A2985 RMK A01 T03380184  RH  040%=      5-min Rain = 0
KWA1 151828Z 18011KT 34/19 A2985 RMK A01 T03370185  RH  041%=      5-min Rain = 0
KWA1 151829Z 18011KT 34/19 A2985 RMK A01 T03380187  RH  041%=      5-min Rain = 0
KWA1 151830Z 19015KT 34/19 A2985 RMK A01 T03370191  RH  042%=      5-min Rain = 0
KWA1 151831Z 21020KT 34/20 A2985 RMK A01 T03400196  RH  043%=      5-min Rain = 0
KWA1 151832Z 20018KT 35/20 A2985 RMK A01 T03450196  RH  042%=      5-min Rain = 0
KWA1 151833Z 21015KT 34/20 A2985 RMK A01 T03440196  RH  042%=      5-min Rain = 0
KWA1 151834Z 19013KT 34/19 A2985 RMK A01 T03440194  RH  042%=      5-min Rain = 0
KWA1 151835Z 19011KT 34/19 A2985 RMK A01 T03420189  RH  040%=      5-min Rain = 0
KWA1 151836Z 20013KT 34/19 A2985 RMK A01 T03400190  RH  041%=      5-min Rain = 0
KWA1 151837Z 20015KT 34/19 A2985 RMK A01 T03400193  RH  042%=      5-min Rain = 0
KWA1 151838Z 19014KT 34/20 A2985 RMK A01 T03430196  RH  042%=      5-min Rain = 0
KWA1 151839Z 21018KT 35/20 A2985 RMK A01 T03450195  RH  042%=      5-min Rain = 0
KWA1 151840Z 22016KT 35/19 A2985 RMK A01 T03470188  RH  039%=      5-min Rain = 0
KWA1 151841Z 20014KT 35/19 A2985 RMK A01 T03470191  RH  040%=      5-min Rain = 0
KWA1 151842Z 19015KT 35/19 A2985 RMK A01 T03510189  RH  039%=      5-min Rain = 0
KWA1 151843Z 20013KT 35/19 A2985 RMK A01 T03470186  RH  039%=      5-min Rain = 0
KWA1 151844Z 20016KT 34/19 A2985 RMK A01 T03440189  RH  040%=      5-min Rain = 0
KWA1 151845Z 21015KT 34/19 A2985 RMK A01 T03440192  RH  041%=      5-min Rain = 0
KWA1 151846Z 21012KT 35/19 A2985 RMK A01 T03470194  RH  041%=      5-min Rain = 0
KWA1 151847Z 20014KT 35/20 A2984 RMK A01 T03470197  RH  042%=      5-min Rain = 0
KWA1 151848Z 20014KT 35/19 A2984 RMK A01 T03460193  RH  041%=      5-min Rain = 0
KWA1 151849Z 21013KT 35/20 A2985 RMK A01 T03460195  RH  041%=      5-min Rain = 0
KWA1 151850Z 22014KT 35/20 A2985 RMK A01 T03470195  RH  041%=      5-min Rain = 0
KWA1 151851Z 21014KT 35/19 A2984 RMK A01 T03490191  RH  039%=      5-min Rain = 0
KWA1 151852Z 21016KT 35/19 A2985 RMK A01 T03500189  RH  039%=      5-min Rain = 0
KWA1 151853Z 22015KT 35/19 A2985 RMK A01 T03510189  RH  039%=      5-min Rain = 0
KWA1 151854Z 22015KT 35/19 A2985 RMK A01 T03520187  RH  038%=      5-min Rain = 0
KWA1 151855Z 22014KT 35/19 A2985 RMK A01 T03500188  RH  039%=      5-min Rain = 0
KWA1 151856Z 20017KT 35/20 A2985 RMK A01 T03490196  RH  041%=      5-min Rain = 0
KWA1 151857Z 20014KT 35/20 A2985 RMK A01 T03460195  RH  041%=      5-min Rain = 0
KWA1 151858Z 22018KT 35/20 A2984 RMK A01 T03450195  RH  041%=      5-min Rain = 0
KWA1 151859Z 23018KT 35/19 A2984 RMK A01 T03480192  RH  040%=      5-min Rain = 0
KWA1 151900Z 22017KT 35/19 A2985 RMK A01 T03490192  RH  040%=      5-min Rain = 0
KWA1 151901Z 22015KT 35/19 A2985 RMK A01 T03470193  RH  040%=      5-min Rain = 0
KWA1 151902Z 21012KT 34/19 A2984 RMK A01 T03440191  RH  041%=      5-min Rain = 0
KWA1 151903Z 20012KT 35/19 A2984 RMK A01 T03470194  RH  041%=      5-min Rain = 0
KWA1 151904Z 19013KT 35/20 A2984 RMK A01 T03500196  RH  040%=      5-min Rain = 0
KWA1 151905Z 20016KT 35/20 A2984 RMK A01 T03470196  RH  041%=      5-min Rain = 0
KWA1 151906Z 19017KT 35/20 A2984 RMK A01 T03510198  RH  041%=      5-min Rain = 0
KWA1 151907Z 19015KT 35/20 A2984 RMK A01 T03490195  RH  040%=      5-min Rain = 0
KWA1 151908Z 19014KT 35/20 A2984 RMK A01 T03480195  RH  041%=      5-min Rain = 0
KWA1 151909Z 20014G21KT 35/20 A2984 RMK A01 T03450197  RH  042%=      5-min Rain = 0
KWA1 151910Z 22015G20KT 35/20 A2984 RMK A01 T03490197  RH  041%=      5-min Rain = 0
KWA1 151911Z 22014KT 35/20 A2984 RMK A01 T03500195  RH  040%=      5-min Rain = 0
KWA1 151912Z 21015G21KT 35/20 A2984 RMK A01 T03500196  RH  041%=      5-min Rain = 0
KWA1 151913Z 19019KT 35/20 A2984 RMK A01 T03510197  RH  041%=      5-min Rain = 0
KWA1 151914Z 19015G20KT 35/19 A2984 RMK A01 T03480194  RH  040%=      5-min Rain = 0
KWA1 151915Z 18014KT 35/20 A2984 RMK A01 T03460196  RH  041%=      5-min Rain = 0
KWA1 151916Z 19014KT 35/20 A2984 RMK A01 T03470197  RH  042%=      5-min Rain = 0
KWA1 151917Z 18016KT 35/20 A2984 RMK A01 T03490199  RH  041%=      5-min Rain = 0
KWA1 151918Z 21017KT 35/20 A2984 RMK A01 T03490196  RH  041%=      5-min Rain = 0
KWA1 151919Z 21012KT 35/19 A2984 RMK A01 T03500194  RH  040%=      5-min Rain = 0
KWA1 151920Z 21014KT 35/20 A2984 RMK A01 T03460195  RH  041%=      5-min Rain = 0
KWA1 151921Z 21016KT 35/20 A2984 RMK A01 T03500198  RH  041%=      5-min Rain = 0
KWA1 151922Z 20014KT 35/20 A2983 RMK A01 T03540199  RH  040%=      5-min Rain = 0
KWA1 151923Z 18018KT 36/20 A2983 RMK A01 T03560199  RH  040%=      5-min Rain = 0
KWA1 151924Z 18015G20KT 35/20 A2983 RMK A01 T03530199  RH  040%=      5-min Rain = 0
KWA1 151925Z 19016KT 35/20 A2983 RMK A01 T03510200  RH  041%=      5-min Rain = 0
KWA1 151926Z 19019KT 35/20 A2983 RMK A01 T03520199  RH  041%=      5-min Rain = 0
KWA1 151927Z 21017G22KT 35/20 A2983 RMK A01 T03530197  RH  040%=      5-min Rain = 0
KWA1 151928Z 22018KT 36/19 A2983 RMK A01 T03570191  RH  038%=      5-min Rain = 0
KWA1 151929Z 21013KT 35/19 A2984 RMK A01 T03520190  RH  038%=      5-min Rain = 0
KWA1 151930Z 22011KT 35/19 A2983 RMK A01 T03490190  RH  039%=      5-min Rain = 0
KWA1 151931Z 22013KT 35/19 A2983 RMK A01 T03500193  RH  040%=      5-min Rain = 0
KWA1 151932Z 21017G22KT 35/19 A2983 RMK A01 T03530194  RH  039%=      5-min Rain = 0
KWA1 151933Z 21018G23KT 35/20 A2983 RMK A01 T03540197  RH  040%=      5-min Rain = 0
KWA1 151934Z 21012KT 35/20 A2983 RMK A01 T03510198  RH  041%=      5-min Rain = 0
KWA1 151935Z 20012KT 35/20 A2983 RMK A01 T03490197  RH  041%=      5-min Rain = 0
KWA1 151936Z 19015G21KT 35/20 A2983 RMK A01 T03490197  RH  041%=      5-min Rain = 0
KWA1 151937Z 21017KT 35/19 A2983 RMK A01 T03520194  RH  039%=      5-min Rain = 0
KWA1 151938Z 22012G17KT 35/19 A2983 RMK A01 T03530192  RH  039%=      5-min Rain = 0
KWA1 151939Z 20013KT 35/19 A2983 RMK A01 T03520192  RH  039%=      5-min Rain = 0
KWA1 151940Z 21012KT 35/19 A2983 RMK A01 T03520194  RH  039%=      5-min Rain = 0
KWA1 151941Z 19014KT 35/19 A2983 RMK A01 T03540193  RH  039%=      5-min Rain = 0
KWA1 151942Z 19011KT 35/19 A2983 RMK A01 T03520189  RH  038%=      5-min Rain = 0
KWA1 151943Z 19010KT 35/19 A2983 RMK A01 T03470188  RH  039%=      5-min Rain = 0
KWA1 151944Z 18012KT 35/19 A2983 RMK A01 T03480192  RH  040%=      5-min Rain = 0
KWA1 151945Z 20015G20KT 35/19 A2983 RMK A01 T03520192  RH  039%=      5-min Rain = 0
KWA1 151946Z 20016KT 35/20 A2983 RMK A01 T03530197  RH  040%=      5-min Rain = 0
KWA1 151947Z 19016G21KT 35/20 A2983 RMK A01 T03520198  RH  040%=      5-min Rain = 0
KWA1 151948Z 20014KT 35/20 A2983 RMK A01 T03520198  RH  041%=      5-min Rain = 0
KWA1 151949Z 19015KT 35/20 A2983 RMK A01 T03490196  RH  041%=      5-min Rain = 0
KWA1 151950Z 19020KT 35/20 A2983 RMK A01 T03490197  RH  041%=      5-min Rain = 0
KWA1 151951Z 19017G23KT 35/20 A2983 RMK A01 T03510196  RH  040%=      5-min Rain = 0
KWA1 151952Z 19016KT 35/20 A2983 RMK A01 T03500197  RH  041%=      5-min Rain = 0
KWA1 151953Z 18014KT 35/20 A2983 RMK A01 T03500198  RH  041%=      5-min Rain = 0
KWA1 151954Z 21016G21KT 35/20 A2983 RMK A01 T03500197  RH  041%=      5-min Rain = 0
KWA1 151955Z 22016KT 35/19 A2983 RMK A01 T03540192  RH  039%=      5-min Rain = 0
KWA1 151956Z 21016KT 35/19 A2983 RMK A01 T03510191  RH  039%=      5-min Rain = 0
KWA1 151957Z 19015KT 35/19 A2983 RMK A01 T03490191  RH  039%=      5-min Rain = 0
KWA1 151958Z 18018KT 35/19 A2983 RMK A01 T03480194  RH  040%=      5-min Rain = 0
KWA1 151959Z 19013KT 35/19 A2983 RMK A01 T03490190  RH  039%=      5-min Rain = 0
KWA1 152000Z 18012KT 35/19 A2983 RMK A01 T03470190  RH  040%=      5-min Rain = 0
KWA1 152001Z 19016G23KT 35/19 A2983 RMK A01 T03470191  RH  040%=      5-min Rain = 0
KWA1 152002Z 19019KT 35/19 A2982 RMK A01 T03480191  RH  040%=      5-min Rain = 0
KWA1 152003Z 19014KT 35/19 A2983 RMK A01 T03490190  RH  039%=      5-min Rain = 0
KWA1 152004Z 20012KT 35/20 A2983 RMK A01 T03510196  RH  040%=      5-min Rain = 0
KWA1 152005Z 20014KT 35/20 A2982 RMK A01 T03530199  RH  041%=      5-min Rain = 0
KWA1 152006Z 19012KT 35/20 A2982 RMK A01 T03510197  RH  041%=      5-min Rain = 0
KWA1 152007Z 18014KT 35/20 A2982 RMK A01 T03490199  RH  041%=      5-min Rain = 0
KWA1 152008Z 20014KT 35/20 A2982 RMK A01 T03500198  RH  041%=      5-min Rain = 0
KWA1 152009Z 20018KT 35/19 A2982 RMK A01 T03530194  RH  039%=      5-min Rain = 0
KWA1 152010Z 20018KT 36/20 A2982 RMK A01 T03560198  RH  040%=      5-min Rain = 0
KWA1 152011Z 20018KT 36/19 A2982 RMK A01 T03570194  RH  038%=      5-min Rain = 0
KWA1 152012Z 20015KT 36/19 A2982 RMK A01 T03550192  RH  039%=      5-min Rain = 0
KWA1 152013Z 21014KT 36/20 A2982 RMK A01 T03550195  RH  039%=      5-min Rain = 0
KWA1 152014Z 22013KT 36/20 A2982 RMK A01 T03570198  RH  039%=      5-min Rain = 0
KWA1 152015Z 23013KT 36/19 A2982 RMK A01 T03570193  RH  038%=      5-min Rain = 0
KWA1 152016Z 21017G22KT 35/20 A2982 RMK A01 T03540197  RH  040%=      5-min Rain = 0
KWA1 152017Z 20018KT 36/20 A2982 RMK A01 T03550200  RH  040%=      5-min Rain = 0
KWA1 152018Z 21015KT 36/20 A2982 RMK A01 T03580201  RH  040%=      5-min Rain = 0
KWA1 152019Z 20016G22KT 36/20 A2982 RMK A01 T03590199  RH  039%=      5-min Rain = 0
KWA1 152020Z 18018KT 35/20 A2982 RMK A01 T03540198  RH  040%=      5-min Rain = 0
KWA1 152021Z 18015KT 35/20 A2982 RMK A01 T03520200  RH  041%=      5-min Rain = 0
KWA1 152022Z 17016KT 35/20 A2982 RMK A01 T03540201  RH  041%=      5-min Rain = 0
KWA1 152023Z 19018KT 35/20 A2982 RMK A01 T03540202  RH  041%=      5-min Rain = 0
KWA1 152024Z 18017KT 35/20 A2982 RMK A01 T03520199  RH  041%=      5-min Rain = 0
KWA1 152025Z 17016KT 35/20 A2982 RMK A01 T03500200  RH  041%=      5-min Rain = 0
KWA1 152026Z 16018G23KT 35/20 A2982 RMK A01 T03510201  RH  041%=      5-min Rain = 0
KWA1 152027Z 20018G23KT 35/20 A2982 RMK A01 T03520196  RH  040%=      5-min Rain = 0
KWA1 152028Z 21012KT 35/19 A2982 RMK A01 T03530192  RH  039%=      5-min Rain = 0
KWA1 152029Z 20016KT 35/19 A2982 RMK A01 T03540194  RH  039%=      5-min Rain = 0
KWA1 152030Z 20020KT 36/20 A2982 RMK A01 T03550196  RH  039%=      5-min Rain = 0
KWA1 152031Z 19020KT 35/20 A2982 RMK A01 T03520196  RH  040%=      5-min Rain = 0
KWA1 152032Z 19017KT 35/20 A2982 RMK A01 T03530197  RH  040%=      5-min Rain = 0
KWA1 152033Z 18015KT 35/20 A2982 RMK A01 T03520198  RH  041%=      5-min Rain = 0
KWA1 152034Z 18014KT 35/20 A2982 RMK A01 T03510198  RH  041%=      5-min Rain = 0
KWA1 152035Z 17017G22KT 35/20 A2982 RMK A01 T03510202  RH  042%=      5-min Rain = 0
KWA1 152036Z 17018KT 35/20 A2982 RMK A01 T03530200  RH  041%=      5-min Rain = 0
KWA1 152037Z 19017KT 35/20 A2982 RMK A01 T03540199  RH  040%=      5-min Rain = 0
KWA1 152038Z 18016KT 35/20 A2982 RMK A01 T03540201  RH  041%=      5-min Rain = 0
KWA1 152039Z 18017KT 36/20 A2982 RMK A01 T03560201  RH  040%=      5-min Rain = 0
KWA1 152040Z 21016KT 36/20 A2982 RMK A01 T03580195  RH  039%=      5-min Rain = 0
KWA1 152041Z 21019KT 36/19 A2982 RMK A01 T03590193  RH  038%=      5-min Rain = 0
KWA1 152042Z 21013KT 36/19 A2982 RMK A01 T03570189  RH  037%=      5-min Rain = 0
KWA1 152043Z 19007KT 35/19 A2982 RMK A01 T03530188  RH  038%=      5-min Rain = 0
KWA1 152044Z 21013KT 35/19 A2982 RMK A01 T03500192  RH  040%=      5-min Rain = 0
KWA1 152045Z 20016KT 36/19 A2982 RMK A01 T03550193  RH  039%=      5-min Rain = 0
KWA1 152046Z 19014KT 36/19 A2982 RMK A01 T03560191  RH  038%=      5-min Rain = 0
KWA1 152047Z 19014KT 36/19 A2982 RMK A01 T03550191  RH  038%=      5-min Rain = 0
KWA1 152048Z 18015KT 36/19 A2982 RMK A01 T03550191  RH  038%=      5-min Rain = 0
KWA1 152049Z 17014KT 35/20 A2982 RMK A01 T03530195  RH  040%=      5-min Rain = 0
KWA1 152050Z 20016KT 35/20 A2982 RMK A01 T03540196  RH  040%=      5-min Rain = 0
KWA1 152051Z 20016KT 36/20 A2982 RMK A01 T03550196  RH  039%=      5-min Rain = 0
KWA1 152052Z 20017KT 36/20 A2982 RMK A01 T03570195  RH  039%=      5-min Rain = 0
KWA1 152053Z 21013KT 36/20 A2982 RMK A01 T03560195  RH  039%=      5-min Rain = 0
KWA1 152054Z 19012G17KT 35/20 A2982 RMK A01 T03540198  RH  040%=      5-min Rain = 0
KWA1 152055Z 18019KT 36/20 A2982 RMK A01 T03560201  RH  040%=      5-min Rain = 0
KWA1 152056Z 18016KT 35/20 A2982 RMK A01 T03540200  RH  041%=      5-min Rain = 0
KWA1 152057Z 18019KT 35/20 A2982 RMK A01 T03520201  RH  041%=      5-min Rain = 0
KWA1 152058Z 19018KT 35/20 A2981 RMK A01 T03530198  RH  040%=      5-min Rain = 0
KWA1 152059Z 20014KT 35/20 A2981 RMK A01 T03530198  RH  040%=      5-min Rain = 0
KWA1 152100Z 20015KT 35/20 A2981 RMK A01 T03520198  RH  040%=      5-min Rain = 0
KWA1 152101Z 19018KT 35/20 A2981 RMK A01 T03530201  RH  041%=      5-min Rain = 0
KWA1 152102Z 19016KT 35/20 A2981 RMK A01 T03540198  RH  040%=      5-min Rain = 0
KWA1 152103Z 18015KT 35/20 A2981 RMK A01 T03510200  RH  041%=      5-min Rain = 0
KWA1 152104Z 18015KT 35/20 A2981 RMK A01 T03530202  RH  041%=      5-min Rain = 0
KWA1 152105Z 19015KT 36/20 A2981 RMK A01 T03560201  RH  040%=      5-min Rain = 0
KWA1 152106Z 17015KT 36/20 A2981 RMK A01 T03570202  RH  040%=      5-min Rain = 0
KWA1 152107Z 17014KT 35/20 A2981 RMK A01 T03540199  RH  040%=      5-min Rain = 0
KWA1 152108Z 18015KT 35/20 A2981 RMK A01 T03510200  RH  041%=      5-min Rain = 0
KWA1 152109Z 22016KT 35/20 A2981 RMK A01 T03530198  RH  040%=      5-min Rain = 0
KWA1 152110Z 22017KT 36/19 A2981 RMK A01 T03570193  RH  038%=      5-min Rain = 0
KWA1 152111Z 20018KT 36/19 A2981 RMK A01 T03550194  RH  039%=      5-min Rain = 0
KWA1 152112Z 19020KT 35/20 A2981 RMK A01 T03530198  RH  040%=      5-min Rain = 0
KWA1 152113Z 18018KT 35/20 A2981 RMK A01 T03530199  RH  041%=      5-min Rain = 0
KWA1 152114Z 18015KT 35/20 A2981 RMK A01 T03530200  RH  041%=      5-min Rain = 0
KWA1 152115Z 18014KT 35/20 A2981 RMK A01 T03530202  RH  041%=      5-min Rain = 0
KWA1 152116Z 19018KT 36/20 A2981 RMK A01 T03550200  RH  040%=      5-min Rain = 0
KWA1 152117Z 18016KT 36/20 A2981 RMK A01 T03560199  RH  040%=      5-min Rain = 0
KWA1 152118Z 18018KT 35/20 A2981 RMK A01 T03520197  RH  040%=      5-min Rain = 0
KWA1 152119Z 18018KT 35/20 A2981 RMK A01 T03510197  RH  041%=      5-min Rain = 0
KWA1 152120Z 18015KT 35/20 A2981 RMK A01 T03520200  RH  041%=      5-min Rain = 0
KWA1 152121Z 18017G22KT 36/20 A2981 RMK A01 T03560202  RH  041%=      5-min Rain = 0
KWA1 152122Z 18021KT 36/20 A2981 RMK A01 T03560200  RH  040%=      5-min Rain = 0
KWA1 152123Z 18019KT 35/20 A2981 RMK A01 T03530197  RH  040%=      5-min Rain = 0
KWA1 152124Z 18015KT 35/20 A2981 RMK A01 T03520197  RH  040%=      5-min Rain = 0
KWA1 152125Z 18016KT 35/20 A2981 RMK A01 T03510196  RH  040%=      5-min Rain = 0
KWA1 152126Z 19013G19KT 35/20 A2981 RMK A01 T03500198  RH  041%=      5-min Rain = 0
KWA1 152127Z 18017KT 35/20 A2981 RMK A01 T03520199  RH  041%=      5-min Rain = 0
KWA1 152128Z 19018KT 36/20 A2981 RMK A01 T03560198  RH  040%=      5-min Rain = 0
KWA1 152129Z 19019KT 36/19 A2981 RMK A01 T03570193  RH  038%=      5-min Rain = 0
KWA1 152130Z 19018KT 35/19 A2981 RMK A01 T03540191  RH  038%=      5-min Rain = 0
KWA1 152131Z 19017KT 35/19 A2981 RMK A01 T03520191  RH  039%=      5-min Rain = 0
KWA1 152132Z 18016KT 35/19 A2981 RMK A01 T03520194  RH  040%=      5-min Rain = 0
KWA1 152133Z 18018KT 35/20 A2981 RMK A01 T03530197  RH  040%=      5-min Rain = 0
KWA1 152134Z 19018KT 35/20 A298 RMK A01 T03540199  RH  040%=      5-min Rain = 0
KWA1 152135Z 19019KT 36/20 A2981 RMK A01 T03550195  RH  039%=      5-min Rain = 0
KWA1 152136Z 18012KT 35/20 A2981 RMK A01 T03520197  RH  040%=      5-min Rain = 0
KWA1 152137Z 17014KT 35/20 A2981 RMK A01 T03530199  RH  041%=      5-min Rain = 0
KWA1 152138Z 17012KT 35/20 A298 RMK A01 T03520197  RH  040%=      5-min Rain = 0
KWA1 152139Z 17016KT 35/20 A298 RMK A01 T03510200  RH  041%=      5-min Rain = 0
KWA1 152140Z 17013KT 35/20 A298 RMK A01 T03510200  RH  041%=      5-min Rain = 0
KWA1 152141Z 18013G18KT 35/20 A298 RMK A01 T03520202  RH  042%=      5-min Rain = 0
KWA1 152142Z 19018KT 36/20 A298 RMK A01 T03550198  RH  040%=      5-min Rain = 0
KWA1 152143Z 18018KT 35/20 A298 RMK A01 T03540195  RH  039%=      5-min Rain = 0
KWA1 152144Z 18013G20KT 35/20 A298 RMK A01 T03530195  RH  040%=      5-min Rain = 0
KWA1 152145Z 17016KT 35/20 A298 RMK A01 T03520196  RH  040%=      5-min Rain = 0
KWA1 152146Z 16017KT 35/19 A298 RMK A01 T03520194  RH  039%=      5-min Rain = 0
KWA1 152147Z 18017KT 35/20 A298 RMK A01 T03530199  RH  041%=      5-min Rain = 0
KWA1 152148Z 18016G21KT 36/20 A298 RMK A01 T03560199  RH  040%=      5-min Rain = 0
KWA1 152149Z 19018KT 36/20 A298 RMK A01 T03560198  RH  040%=      5-min Rain = 0
KWA1 152150Z 18017KT 35/20 A298 RMK A01 T03540198  RH  040%=      5-min Rain = 0
KWA1 152151Z 19017KT 36/20 A298 RMK A01 T03550198  RH  040%=      5-min Rain = 0
KWA1 152152Z 19013KT 36/20 A298 RMK A01 T03560197  RH  040%=      5-min Rain = 0
KWA1 152153Z 19016KT 35/20 A298 RMK A01 T03540197  RH  040%=      5-min Rain = 0
KWA1 152154Z 18012KT 36/20 A298 RMK A01 T03560202  RH  041%=      5-min Rain = 0
KWA1 152155Z 18018KT 36/20 A298 RMK A01 T03580199  RH  039%=      5-min Rain = 0
KWA1 152156Z 18019KT 35/20 A298 RMK A01 T03540196  RH  040%=      5-min Rain = 0
KWA1 152157Z 19016KT 35/20 A298 RMK A01 T03520195  RH  040%=      5-min Rain = 0
KWA1 152158Z 19016KT 35/19 A298 RMK A01 T03500192  RH  040%=      5-min Rain = 0
KWA1 152159Z 18019KT 35/20 A298 RMK A01 T03490195  RH  041%=      5-min Rain = 0
KWA1 152200Z 17015G20KT 35/20 A298 RMK A01 T03490195  RH  040%=      5-min Rain = 0
KWA1 152201Z 18016G22KT 35/20 A2979 RMK A01 T03510196  RH  040%=      5-min Rain = 0
KWA1 152202Z 17021KT 35/20 A2979 RMK A01 T03540198  RH  040%=      5-min Rain = 0
KWA1 152203Z 17017KT 35/20 A298 RMK A01 T03530197  RH  040%=      5-min Rain = 0
KWA1 152204Z 18018KT 35/20 A298 RMK A01 T03510197  RH  040%=      5-min Rain = 0
KWA1 152205Z 18016KT 35/20 A298 RMK A01 T03500195  RH  040%=      5-min Rain = 0
KWA1 152206Z 18018KT 35/20 A2979 RMK A01 T03530195  RH  040%=      5-min Rain = 0
KWA1 152207Z 17018G23KT 35/20 A298 RMK A01 T03540197  RH  040%=      5-min Rain = 0
KWA1 152208Z 17019KT 35/20 A298 RMK A01 T03540197  RH  040%=      5-min Rain = 0
KWA1 152209Z 18016KT 35/20 A298 RMK A01 T03540197  RH  040%=      5-min Rain = 0
KWA1 152210Z 18019KT 35/20 A298 RMK A01 T03540195  RH  040%=      5-min Rain = 0
KWA1 152211Z 18019KT 35/20 A298 RMK A01 T03530195  RH  040%=      5-min Rain = 0
KWA1 152212Z 18019KT 35/20 A298 RMK A01 T03520195  RH  040%=      5-min Rain = 0
KWA1 152213Z 17017KT 35/20 A298 RMK A01 T03510195  RH  040%=      5-min Rain = 0
KWA1 152214Z 17012KT 35/20 A2979 RMK A01 T03480196  RH  041%=      5-min Rain = 0
KWA1 152215Z 18018KT 35/20 A2979 RMK A01 T03470199  RH  042%=      5-min Rain = 0
KWA1 152216Z 17017KT 35/20 A2979 RMK A01 T03480202  RH  042%=      5-min Rain = 0
KWA1 152217Z 18017KT 35/20 A2979 RMK A01 T03490202  RH  042%=      5-min Rain = 0
KWA1 152218Z 18017KT 35/20 A2979 RMK A01 T03520203  RH  042%=      5-min Rain = 0
KWA1 152219Z 18016KT 35/19 A2979 RMK A01 T03530193  RH  039%=      5-min Rain = 0
KWA1 152220Z 18016KT 35/19 A2979 RMK A01 T03530194  RH  039%=      5-min Rain = 0
KWA1 152221Z 18016KT 35/19 A2979 RMK A01 T03530194  RH  039%=      5-min Rain = 0
KWA1 152222Z 19016KT 35/20 A2979 RMK A01 T03540195  RH  039%=      5-min Rain = 0
KWA1 152223Z 19019KT 36/19 A2979 RMK A01 T03550193  RH  039%=      5-min Rain = 0
KWA1 152224Z 19018KT 36/19 A2979 RMK A01 T03560193  RH  039%=      5-min Rain = 0
KWA1 152225Z 19016KT 35/19 A2979 RMK A01 T03540191  RH  038%=      5-min Rain = 0
KWA1 152226Z 19014KT 35/19 A2979 RMK A01 T03530193  RH  039%=      5-min Rain = 0
KWA1 152227Z 19014KT 35/19 A2979 RMK A01 T03530191  RH  039%=      5-min Rain = 0
KWA1 152228Z 17015KT 35/20 A2979 RMK A01 T03520196  RH  040%=      5-min Rain = 0
KWA1 152229Z 16015KT 35/20 A2979 RMK A01 T03510198  RH  041%=      5-min Rain = 0
KWA1 152230Z 17016G22KT 35/20 A2979 RMK A01 T03510197  RH  040%=      5-min Rain = 0
KWA1 152231Z 19017KT 35/20 A2978 RMK A01 T03510195  RH  040%=      5-min Rain = 0
KWA1 152232Z 19017KT 35/19 A2978 RMK A01 T03520194  RH  040%=      5-min Rain = 0
KWA1 152233Z 19017KT 35/19 A2978 RMK A01 T03520194  RH  039%=      5-min Rain = 0
KWA1 152234Z 19016KT 35/19 A2978 RMK A01 T03510194  RH  040%=      5-min Rain = 0
KWA1 152235Z 19016KT 35/19 A2978 RMK A01 T03500192  RH  039%=      5-min Rain = 0
KWA1 152236Z 18016KT 35/19 A2978 RMK A01 T03500193  RH  040%=      5-min Rain = 0
KWA1 152237Z 17013KT 35/20 A2978 RMK A01 T03500195  RH  040%=      5-min Rain = 0
KWA1 152238Z 18015KT 35/19 A2978 RMK A01 T03500194  RH  040%=      5-min Rain = 0
KWA1 152239Z 19016KT 35/19 A2978 RMK A01 T03500189  RH  039%=      5-min Rain = 0
KWA1 152240Z 20017KT 35/19 A2978 RMK A01 T03490189  RH  039%=      5-min Rain = 0
KWA1 152241Z 19016KT 35/19 A2978 RMK A01 T03510190  RH  039%=      5-min Rain = 0
KWA1 152242Z 20016KT 35/19 A2978 RMK A01 T03510193  RH  039%=      5-min Rain = 0
KWA1 152243Z 20015KT 35/19 A2978 RMK A01 T03520194  RH  039%=      5-min Rain = 0
KWA1 152244Z 19017KT 35/19 A2978 RMK A01 T03530188  RH  038%=      5-min Rain = 0
KWA1 152245Z 20017KT 35/18 A2978 RMK A01 T03510184  RH  037%=      5-min Rain = 0
KWA1 152246Z 19015KT 35/19 A2978 RMK A01 T03500187  RH  038%=      5-min Rain = 0
KWA1 152247Z 18014KT 35/19 A2978 RMK A01 T03510187  RH  038%=      5-min Rain = 0
KWA1 152248Z 17017KT 35/19 A2978 RMK A01 T03510188  RH  039%=      5-min Rain = 0
KWA1 152249Z 18016KT 35/19 A2978 RMK A01 T03510190  RH  039%=      5-min Rain = 0
KWA1 152250Z 19013KT 35/19 A2978 RMK A01 T03510188  RH  038%=      5-min Rain = 0
KWA1 152251Z 18013KT 35/19 A2978 RMK A01 T03510188  RH  038%=      5-min Rain = 0
KWA1 152252Z 17016KT 35/20 A2978 RMK A01 T03510195  RH  040%=      5-min Rain = 0
KWA1 152253Z 18017KT 35/19 A2977 RMK A01 T03520194  RH  040%=      5-min Rain = 0
KWA1 152254Z 18017KT 35/19 A2977 RMK A01 T03510193  RH  040%=      5-min Rain = 0
KWA1 152255Z 18014KT 35/20 A2977 RMK A01 T03510199  RH  041%=      5-min Rain = 0
KWA1 152256Z 18014KT 35/20 A2977 RMK A01 T03540199  RH  040%=      5-min Rain = 0
KWA1 152257Z 19015G21KT 35/20 A2977 RMK A01 T03540196  RH  040%=      5-min Rain = 0
KWA1 152258Z 19018KT 35/19 A2977 RMK A01 T03530190  RH  039%=      5-min Rain = 0
KWA1 152259Z 19014KT 35/19 A2977 RMK A01 T03500192  RH  040%=      5-min Rain = 0
KWA1 152300Z 19016KT 35/20 A2977 RMK A01 T03530196  RH  040%=      5-min Rain = 0
KWA1 152301Z 19018KT 35/19 A2977 RMK A01 T03530194  RH  039%=      5-min Rain = 0
KWA1 152302Z 19016KT 35/19 A2977 RMK A01 T03500191  RH  039%=      5-min Rain = 0
KWA1 152303Z 18016KT 35/19 A2977 RMK A01 T03480192  RH  040%=      5-min Rain = 0
KWA1 152304Z 17014KT 35/20 A2977 RMK A01 T03470195  RH  041%=      5-min Rain = 0
KWA1 152305Z 17013KT 35/19 A2977 RMK A01 T03490194  RH  040%=      5-min Rain = 0
KWA1 152306Z 18014KT 35/20 A2977 RMK A01 T03500196  RH  040%=      5-min Rain = 0
KWA1 152307Z 19018KT 35/20 A2977 RMK A01 T03520195  RH  040%=      5-min Rain = 0
KWA1 152308Z 18017KT 35/19 A2977 RMK A01 T03530192  RH  039%=      5-min Rain = 0
KWA1 152309Z 18018KT 35/19 A2977 RMK A01 T03490192  RH  040%=      5-min Rain = 0
KWA1 152310Z 18016KT 35/19 A2977 RMK A01 T03460193  RH  041%=      5-min Rain = 0
KWA1 152311Z 19016KT 35/19 A2977 RMK A01 T03460192  RH  040%=      5-min Rain = 0
KWA1 152312Z 18015KT 35/19 A2977 RMK A01 T03460191  RH  040%=      5-min Rain = 0
KWA1 152313Z 17017KT 34/19 A2977 RMK A01 T03440192  RH  041%=      5-min Rain = 0
KWA1 152314Z 17016KT 34/19 A2977 RMK A01 T03440193  RH  041%=      5-min Rain = 0
KWA1 152315Z 17013KT 34/19 A2977 RMK A01 T03430193  RH  041%=      5-min Rain = 0
KWA1 152316Z 17014KT 34/20 A2977 RMK A01 T03430195  RH  042%=      5-min Rain = 0
KWA1 152317Z 17017KT 34/20 A2977 RMK A01 T03430196  RH  042%=      5-min Rain = 0
KWA1 152318Z 17016KT 34/20 A2977 RMK A01 T03430197  RH  042%=      5-min Rain = 0
KWA1 152319Z 17015KT 34/20 A2977 RMK A01 T03440198  RH  042%=      5-min Rain = 0
KWA1 152320Z 17017KT 35/20 A2977 RMK A01 T03460196  RH  041%=      5-min Rain = 0
KWA1 152321Z 17016KT 35/20 A2977 RMK A01 T03450195  RH  041%=      5-min Rain = 0
KWA1 152322Z 18018KT 35/20 A2977 RMK A01 T03450196  RH  042%=      5-min Rain = 0
KWA1 152323Z 17016KT 34/20 A2977 RMK A01 T03440195  RH  042%=      5-min Rain = 0
KWA1 152324Z 18014KT 34/20 A2977 RMK A01 T03440198  RH  042%=      5-min Rain = 0
KWA1 152325Z 18015KT 35/20 A2977 RMK A01 T03460198  RH  042%=      5-min Rain = 0
KWA1 152326Z 18016KT 35/20 A2977 RMK A01 T03470198  RH  042%=      5-min Rain = 0
KWA1 152327Z 18017KT 35/20 A2977 RMK A01 T03480197  RH  041%=      5-min Rain = 0
KWA1 152328Z 17020KT 35/20 A2977 RMK A01 T03460195  RH  041%=      5-min Rain = 0
KWA1 152329Z 18014KT 34/20 A2977 RMK A01 T03440197  RH  042%=      5-min Rain = 0
KWA1 152330Z 18015KT 34/20 A2977 RMK A01 T03430197  RH  042%=      5-min Rain = 0
KWA1 152331Z 18014KT 34/20 A2977 RMK A01 T03420197  RH  043%=      5-min Rain = 0
KWA1 152332Z 18015KT 34/20 A2977 RMK A01 T03410197  RH  043%=      5-min Rain = 0
KWA1 152333Z 18017KT 34/20 A2977 RMK A01 T03400196  RH  043%=      5-min Rain = 0
KWA1 152334Z 18015KT 34/20 A2977 RMK A01 T03390196  RH  043%=      5-min Rain = 0
KWA1 152335Z 17016KT 34/20 A2977 RMK A01 T03390197  RH  043%=      5-min Rain = 0
KWA1 152336Z 17019KT 34/20 A2977 RMK A01 T03380197  RH  043%=      5-min Rain = 0
KWA1 152337Z 18016KT 34/20 A2977 RMK A01 T03360196  RH  044%=      5-min Rain = 0
KWA1 152338Z 17016KT 34/20 A2977 RMK A01 T03360197  RH  044%=      5-min Rain = 0
KWA1 152339Z 17015KT 34/20 A2977 RMK A01 T03360199  RH  044%=      5-min Rain = 0
KWA1 152340Z 18016KT 34/20 A2977 RMK A01 T03370199  RH  045%=      5-min Rain = 0
KWA1 152341Z 18018KT 34/20 A2977 RMK A01 T03360196  RH  044%=      5-min Rain = 0
KWA1 152342Z 18017KT 34/20 A2977 RMK A01 T03360195  RH  044%=      5-min Rain = 0
KWA1 152343Z 18014KT 34/20 A2977 RMK A01 T03360197  RH  044%=      5-min Rain = 0
KWA1 152344Z 18013KT 34/20 A2977 RMK A01 T03360197  RH  044%=      5-min Rain = 0
KWA1 152345Z 19015KT 34/19 A2977 RMK A01 T03360194  RH  043%=      5-min Rain = 0
KWA1 152346Z 18015KT 34/19 A2977 RMK A01 T03360191  RH  042%=      5-min Rain = 0
KWA1 152347Z 18015KT 34/19 A2977 RMK A01 T03360193  RH  043%=      5-min Rain = 0
KWA1 152348Z 18016KT 34/19 A2977 RMK A01 T03350194  RH  044%=      5-min Rain = 0
KWA1 152349Z 18017KT 33/20 A2977 RMK A01 T03340196  RH  044%=      5-min Rain = 0
KWA1 152350Z 18014KT 33/20 A2977 RMK A01 T03340197  RH  044%=      5-min Rain = 0
KWA1 152351Z 18014KT 33/20 A2977 RMK A01 T03340197  RH  045%=      5-min Rain = 0
KWA1 152352Z 18016KT 33/20 A2977 RMK A01 T03340197  RH  045%=      5-min Rain = 0
KWA1 152353Z 19017KT 33/20 A2977 RMK A01 T03340195  RH  044%=      5-min Rain = 0
KWA1 152354Z 19016KT 33/20 A2977 RMK A01 T03340196  RH  044%=      5-min Rain = 0
KWA1 152355Z 18014KT 33/20 A2977 RMK A01 T03340195  RH  044%=      5-min Rain = 0
KWA1 152356Z 18014KT 33/20 A2977 RMK A01 T03340197  RH  045%=      5-min Rain = 0
KWA1 152357Z 18015KT 33/20 A2977 RMK A01 T03340197  RH  045%=      5-min Rain = 0
KWA1 152358Z 18015KT 33/20 A2977 RMK A01 T03330197  RH  045%=      5-min Rain = 0
KWA1 152359Z 19015KT 33/20 A2977 RMK A01 T03330197  RH  045%=      5-min Rain = 0
KWA1 160000Z 18016KT 33/20 A2977 RMK A01 T03330198  RH  045%=      5-min Rain = 0
KWA1 160001Z 18013KT 33/20 A2977 RMK A01 T03320198  RH  045%=      5-min Rain = 0
KWA1 160002Z 17013KT 33/20 A2977 RMK A01 T03320200  RH  046%=      5-min Rain = 0
KWA1 160003Z 18015KT 33/20 A2977 RMK A01 T03310199  RH  046%=      5-min Rain = 0
KWA1 160004Z 17016KT 33/20 A2977 RMK A01 T03310199  RH  046%=      5-min Rain = 0
KWA1 160005Z 17018KT 33/20 A2977 RMK A01 T03300197  RH  045%=      5-min Rain = 0
KWA1 160006Z 17016G21KT 33/20 A2977 RMK A01 T03300197  RH  045%=      5-min Rain = 0
KWA1 160007Z 18016KT 33/20 A2977 RMK A01 T03300196  RH  045%=      5-min Rain = 0
KWA1 160008Z 18016KT 33/20 A2977 RMK A01 T03300196  RH  045%=      5-min Rain = 0
KWA1 160009Z 18017KT 33/20 A2977 RMK A01 T03300196  RH  045%=      5-min Rain = 0
KWA1 160010Z 18014KT 33/20 A2977 RMK A01 T03300196  RH  045%=      5-min Rain = 0
KWA1 160011Z 18013KT 33/20 A2977 RMK A01 T03300197  RH  046%=      5-min Rain = 0
KWA1 160012Z 17014KT 33/20 A2977 RMK A01 T03290197  RH  046%=      5-min Rain = 0
KWA1 160013Z 18015KT 33/20 A2977 RMK A01 T03290197  RH  046%=      5-min Rain = 0
KWA1 160014Z 17018KT 33/20 A2977 RMK A01 T03280196  RH  046%=      5-min Rain = 0
KWA1 160015Z 18015KT 33/20 A2977 RMK A01 T03280195  RH  046%=      5-min Rain = 0
KWA1 160016Z 18013KT 33/20 A2977 RMK A01 T03280196  RH  046%=      5-min Rain = 0
KWA1 160017Z 18016KT 33/20 A2977 RMK A01 T03280196  RH  046%=      5-min Rain = 0
KWA1 160018Z 17014KT 33/20 A2977 RMK A01 T03280196  RH  046%=      5-min Rain = 0
KWA1 160019Z 17013KT 33/20 A2977 RMK A01 T03270197  RH  046%=      5-min Rain = 0
KWA1 160020Z 17015KT 33/20 A2977 RMK A01 T03270197  RH  046%=      5-min Rain = 0
KWA1 160021Z 17014KT 33/20 A2977 RMK A01 T03270197  RH  046%=      5-min Rain = 0
KWA1 160022Z 17014KT 33/20 A2977 RMK A01 T03260197  RH  046%=      5-min Rain = 0
KWA1 160023Z 17012KT 33/20 A2977 RMK A01 T03260197  RH  047%=      5-min Rain = 0
KWA1 160024Z 17013KT 33/20 A2977 RMK A01 T03250198  RH  047%=      5-min Rain = 0
KWA1 160025Z 18013KT 33/20 A2977 RMK A01 T03250197  RH  047%=      5-min Rain = 0
KWA1 160026Z 18014KT 32/20 A2977 RMK A01 T03240197  RH  047%=      5-min Rain = 0
KWA1 160027Z 17012KT 32/20 A2977 RMK A01 T03240197  RH  047%=      5-min Rain = 0
KWA1 160028Z 17014KT 32/20 A2977 RMK A01 T03240197  RH  047%=      5-min Rain = 0
KWA1 160029Z 17014KT 32/20 A2977 RMK A01 T03240198  RH  047%=      5-min Rain = 0
KWA1 160030Z 17014KT 32/20 A2977 RMK A01 T03230198  RH  048%=      5-min Rain = 0
KWA1 160031Z 17015KT 32/20 A2977 RMK A01 T03230198  RH  048%=      5-min Rain = 0
KWA1 160032Z 18015KT 32/20 A2977 RMK A01 T03230198  RH  048%=      5-min Rain = 0
KWA1 160033Z 18014KT 32/20 A2977 RMK A01 T03220197  RH  048%=      5-min Rain = 0
KWA1 160034Z 18014KT 32/20 A2977 RMK A01 T03220197  RH  047%=      5-min Rain = 0
KWA1 160035Z 18015KT 32/20 A2977 RMK A01 T03220196  RH  047%=      5-min Rain = 0
KWA1 160036Z 18012KT 32/20 A2977 RMK A01 T03220197  RH  048%=      5-min Rain = 0
KWA1 160037Z 18014KT 32/20 A2977 RMK A01 T03220197  RH  048%=      5-min Rain = 0
KWA1 160038Z 18013KT 32/20 A2977 RMK A01 T03220197  RH  048%=      5-min Rain = 0
KWA1 160039Z 18012KT 32/20 A2977 RMK A01 T03230197  RH  048%=      5-min Rain = 0
KWA1 160040Z 18012KT 32/20 A2977 RMK A01 T03220198  RH  048%=      5-min Rain = 0
KWA1 160041Z 17011KT 32/20 A2977 RMK A01 T03220197  RH  048%=      5-min Rain = 0
KWA1 160042Z 18010KT 32/20 A2977 RMK A01 T03210198  RH  048%=      5-min Rain = 0
KWA1 160043Z 17012KT 32/20 A2977 RMK A01 T03210198  RH  048%=      5-min Rain = 0
KWA1 160044Z 18012KT 32/20 A2977 RMK A01 T03200198  RH  048%=      5-min Rain = 0
KWA1 160045Z 18012KT 32/20 A2978 RMK A01 T03200198  RH  048%=      5-min Rain = 0
KWA1 160046Z 19015KT 32/20 A2978 RMK A01 T03200197  RH  048%=      5-min Rain = 0
KWA1 160047Z 18015KT 32/20 A2978 RMK A01 T03200197  RH  048%=      5-min Rain = 0
KWA1 160048Z 19013KT 32/20 A2978 RMK A01 T03200196  RH  048%=      5-min Rain = 0
KWA1 160049Z 19012KT 32/20 A2978 RMK A01 T03200196  RH  048%=      5-min Rain = 0
KWA1 160050Z 18015KT 32/20 A2978 RMK A01 T03200196  RH  048%=      5-min Rain = 0
KWA1 160051Z 19014KT 32/20 A2978 RMK A01 T03200196  RH  048%=      5-min Rain = 0
KWA1 160052Z 19015KT 32/20 A2978 RMK A01 T03210197  RH  048%=      5-min Rain = 0
KWA1 160053Z 19014KT 32/20 A2978 RMK A01 T03200196  RH  048%=      5-min Rain = 0
KWA1 160054Z 19012KT 32/20 A2978 RMK A01 T03200197  RH  048%=      5-min Rain = 0
KWA1 160055Z 19014KT 32/20 A2978 RMK A01 T03200197  RH  048%=      5-min Rain = 0
KWA1 160056Z 19015KT 32/20 A2979 RMK A01 T03200197  RH  048%=      5-min Rain = 0
KWA1 160057Z 20017KT 32/20 A2979 RMK A01 T03200197  RH  048%=      5-min Rain = 0
KWA1 160058Z 20016KT 32/20 A2979 RMK A01 T03200197  RH  048%=      5-min Rain = 0
KWA1 160059Z 20015KT 32/20 A2979 RMK A01 T03190197  RH  048%=      5-min Rain = 0
KWA1 160100Z 20017KT 32/20 A2979 RMK A01 T03190196  RH  048%=      5-min Rain = 0
KWA1 160101Z 20016KT 32/20 A2979 RMK A01 T03190197  RH  048%=      5-min Rain = 0
KWA1 160102Z 19018KT 32/20 A2979 RMK A01 T03190197  RH  048%=      5-min Rain = 0
KWA1 160103Z 19019KT 32/20 A2979 RMK A01 T03190196  RH  048%=      5-min Rain = 0
KWA1 160104Z 20017KT 32/20 A2979 RMK A01 T03190196  RH  048%=      5-min Rain = 0
KWA1 160105Z 20016KT 32/20 A2979 RMK A01 T03190196  RH  048%=      5-min Rain = 0
KWA1 160106Z 20016KT 32/20 A2979 RMK A01 T03180196  RH  048%=      5-min Rain = 0
KWA1 160107Z 20018KT 32/20 A2979 RMK A01 T03180196  RH  048%=      5-min Rain = 0
KWA1 160108Z 20017KT 32/20 A2979 RMK A01 T03180196  RH  048%=      5-min Rain = 0
KWA1 160109Z 20015KT 32/20 A2979 RMK A01 T03180196  RH  049%=      5-min Rain = 0
KWA1 160110Z 20016KT 32/20 A2979 RMK A01 T03170196  RH  049%=      5-min Rain = 0
KWA1 160111Z 20019KT 32/20 A2979 RMK A01 T03170196  RH  049%=      5-min Rain = 0
KWA1 160112Z 20017KT 32/20 A2979 RMK A01 T03170196  RH  049%=      5-min Rain = 0
KWA1 160113Z 20016KT 32/20 A2979 RMK A01 T03170196  RH  049%=      5-min Rain = 0
KWA1 160114Z 19015KT 32/20 A2979 RMK A01 T03170196  RH  049%=      5-min Rain = 0
KWA1 160115Z 19016KT 32/20 A2979 RMK A01 T03160196  RH  049%=      5-min Rain = 0
KWA1 160116Z 19016KT 32/20 A2979 RMK A01 T03160196  RH  049%=      5-min Rain = 0
KWA1 160117Z 19017KT 32/20 A2979 RMK A01 T03160196  RH  049%=      5-min Rain = 0
KWA1 160118Z 19016KT 32/20 A2979 RMK A01 T03160196  RH  049%=      5-min Rain = 0
KWA1 160119Z 19015KT 32/20 A2979 RMK A01 T03160196  RH  049%=      5-min Rain = 0
KWA1 160120Z 19014KT 32/20 A2979 RMK A01 T03160196  RH  049%=      5-min Rain = 0
KWA1 160121Z 19014KT 32/20 A2979 RMK A01 T03160196  RH  049%=      5-min Rain = 0
KWA1 160122Z 19015KT 32/20 A2979 RMK A01 T03150196  RH  049%=      5-min Rain = 0
KWA1 160123Z 18016KT 31/20 A2979 RMK A01 T03140196  RH  049%=      5-min Rain = 0
KWA1 160124Z 18016KT 31/20 A2979 RMK A01 T03140196  RH  050%=      5-min Rain = 0
KWA1 160125Z 18018KT 31/20 A2979 RMK A01 T03140196  RH  050%=      5-min Rain = 0
KWA1 160126Z 19017KT 31/20 A2979 RMK A01 T03140196  RH  050%=      5-min Rain = 0
KWA1 160127Z 19016KT 31/20 A2979 RMK A01 T03140196  RH  050%=      5-min Rain = 0
KWA1 160128Z 18015G20KT 31/20 A2979 RMK A01 T03140196  RH  050%=      5-min Rain = 0
KWA1 160129Z 18017KT 31/20 A2979 RMK A01 T03140196  RH  050%=      5-min Rain = 0
KWA1 160130Z 18015KT 31/20 A2979 RMK A01 T03140196  RH  050%=      5-min Rain = 0
KWA1 160131Z 18017KT 31/20 A2979 RMK A01 T03130196  RH  050%=      5-min Rain = 0
KWA1 160132Z 18017KT 31/20 A2979 RMK A01 T03130196  RH  050%=      5-min Rain = 0
KWA1 160133Z 18017KT 31/20 A2979 RMK A01 T03130197  RH  050%=      5-min Rain = 0
KWA1 160134Z 18016KT 31/20 A2979 RMK A01 T03130196  RH  050%=      5-min Rain = 0
KWA1 160135Z 18018KT 31/20 A2978 RMK A01 T03120196  RH  050%=      5-min Rain = 0
KWA1 160136Z 18018KT 31/20 A2978 RMK A01 T03120196  RH  050%=      5-min Rain = 0
KWA1 160137Z 18017KT 31/20 A2978 RMK A01 T03120196  RH  050%=      5-min Rain = 0
KWA1 160138Z 18018KT 31/20 A2978 RMK A01 T03120196  RH  050%=      5-min Rain = 0
KWA1 160139Z 18018KT 31/20 A2978 RMK A01 T03120196  RH  050%=      5-min Rain = 0
KWA1 160140Z 18017KT 31/20 A2978 RMK A01 T03120196  RH  050%=      5-min Rain = 0
KWA1 160141Z 18016KT 31/20 A2978 RMK A01 T03110195  RH  050%=      5-min Rain = 0
KWA1 160142Z 18016KT 31/20 A2978 RMK A01 T03110196  RH  050%=      5-min Rain = 0
KWA1 160143Z 18018KT 31/20 A2978 RMK A01 T03110195  RH  050%=      5-min Rain = 0
KWA1 160144Z 18020KT 31/20 A2978 RMK A01 T03120196  RH  050%=      5-min Rain = 0
KWA1 160145Z 18020KT 31/19 A2978 RMK A01 T03110194  RH  050%=      5-min Rain = 0
KWA1 160146Z 18020KT 31/19 A2978 RMK A01 T03110194  RH  050%=      5-min Rain = 0
KWA1 160147Z 18020KT 31/20 A2978 RMK A01 T03120195  RH  050%=      5-min Rain = 0
KWA1 160148Z 18019KT 31/20 A2978 RMK A01 T03120195  RH  050%=      5-min Rain = 0
KWA1 160149Z 18015KT 31/20 A2978 RMK A01 T03110195  RH  050%=      5-min Rain = 0
KWA1 160150Z 17015KT 31/20 A2978 RMK A01 T03110196  RH  050%=      5-min Rain = 0
KWA1 160151Z 17016KT 31/20 A2978 RMK A01 T03100195  RH  051%=      5-min Rain = 0
KWA1 160152Z 17016KT 31/20 A2978 RMK A01 T03090195  RH  051%=      5-min Rain = 0
KWA1 160153Z 17016KT 31/20 A2978 RMK A01 T03090196  RH  051%=      5-min Rain = 0
KWA1 160154Z 17015KT 31/20 A2978 RMK A01 T03080195  RH  051%=      5-min Rain = 0
KWA1 160155Z 17015KT 31/20 A2978 RMK A01 T03080196  RH  051%=      5-min Rain = 0
KWA1 160156Z 17015KT 31/20 A2978 RMK A01 T03080195  RH  051%=      5-min Rain = 0
KWA1 160157Z 17016KT 31/20 A2978 RMK A01 T03080195  RH  051%=      5-min Rain = 0
KWA1 160158Z 17014KT 31/20 A2978 RMK A01 T03080195  RH  051%=      5-min Rain = 0
KWA1 160159Z 17015KT 31/20 A2978 RMK A01 T03070195  RH  051%=      5-min Rain = 0
KWA1 160200Z 17016KT 31/20 A2977 RMK A01 T03070195  RH  051%=      5-min Rain = 0
KWA1 160201Z 18018KT 31/20 A2977 RMK A01 T03070195  RH  051%=      5-min Rain = 0
KWA1 160202Z 17017KT 31/20 A2977 RMK A01 T03070195  RH  051%=      5-min Rain = 0
KWA1 160203Z 17018KT 31/20 A2977 RMK A01 T03070195  RH  051%=      5-min Rain = 0
KWA1 160204Z 17019KT 31/20 A2977 RMK A01 T03070195  RH  051%=      5-min Rain = 0
KWA1 160205Z 18019KT 31/20 A2977 RMK A01 T03070195  RH  051%=      5-min Rain = 0
KWA1 160206Z 18018KT 31/20 A2977 RMK A01 T03070195  RH  051%=      5-min Rain = 0
KWA1 160207Z 17019KT 31/19 A2977 RMK A01 T03070194  RH  051%=      5-min Rain = 0
KWA1 160208Z 17018KT 31/20 A2977 RMK A01 T03070195  RH  051%=      5-min Rain = 0
KWA1 160209Z 17018KT 31/20 A2977 RMK A01 T03070195  RH  051%=      5-min Rain = 0
KWA1 160210Z 18018KT 31/20 A2977 RMK A01 T03070195  RH  051%=      5-min Rain = 0
KWA1 160211Z 18017KT 31/20 A2977 RMK A01 T03060195  RH  051%=      5-min Rain = 0
KWA1 160212Z 18018KT 31/20 A2977 RMK A01 T03060195  RH  051%=      5-min Rain = 0
KWA1 160213Z 17019KT 31/19 A2977 RMK A01 T03060194  RH  051%=      5-min Rain = 0
KWA1 160214Z 18020KT 31/19 A2977 RMK A01 T03060194  RH  051%=      5-min Rain = 0
KWA1 160215Z 17022KT 31/19 A2977 RMK A01 T03070194  RH  051%=      5-min Rain = 0
KWA1 160216Z 17020KT 31/19 A2977 RMK A01 T03070194  RH  051%=      5-min Rain = 0
KWA1 160217Z 18018KT 31/19 A2977 RMK A01 T03060194  RH  051%=      5-min Rain = 0
KWA1 160218Z 18019KT 31/19 A2977 RMK A01 T03060193  RH  051%=      5-min Rain = 0
KWA1 160219Z 17020KT 31/19 A2977 RMK A01 T03060194  RH  051%=      5-min Rain = 0
KWA1 160220Z 17016KT 31/19 A2977 RMK A01 T03060193  RH  051%=      5-min Rain = 0
KWA1 160221Z 17018KT 31/19 A2977 RMK A01 T03060194  RH  051%=      5-min Rain = 0
KWA1 160222Z 17019KT 31/19 A2977 RMK A01 T03050193  RH  051%=      5-min Rain = 0
KWA1 160223Z 17019KT 31/19 A2977 RMK A01 T03050193  RH  051%=      5-min Rain = 0
KWA1 160224Z 17018KT 31/19 A2977 RMK A01 T03050193  RH  051%=      5-min Rain = 0
KWA1 160225Z 17017G22KT 31/19 A2977 RMK A01 T03060193  RH  051%=      5-min Rain = 0
KWA1 160226Z 17016KT 31/19 A2977 RMK A01 T03050193  RH  051%=      5-min Rain = 0
KWA1 160227Z 17015KT 30/19 A2977 RMK A01 T03040193  RH  051%=      5-min Rain = 0
KWA1 160228Z 17016KT 30/19 A2977 RMK A01 T03040193  RH  051%=      5-min Rain = 0
KWA1 160229Z 17016KT 30/19 A2977 RMK A01 T03040192  RH  051%=      5-min Rain = 0
KWA1 160230Z 17018KT 30/19 A2977 RMK A01 T03040193  RH  051%=      5-min Rain = 0
KWA1 160231Z 17018KT 30/19 A2977 RMK A01 T03040193  RH  051%=      5-min Rain = 0
KWA1 160232Z 17017KT 30/19 A2977 RMK A01 T03040192  RH  051%=      5-min Rain = 0
KWA1 160233Z 17015KT 30/19 A2977 RMK A01 T03040193  RH  051%=      5-min Rain = 0
KWA1 160234Z 17016KT 30/19 A2977 RMK A01 T03040193  RH  051%=      5-min Rain = 0
KWA1 160235Z 17016KT 30/19 A2978 RMK A01 T03040193  RH  051%=      5-min Rain = 0
KWA1 160236Z 17013KT 30/19 A2978 RMK A01 T03040192  RH  051%=      5-min Rain = 0
KWA1 160237Z 17014KT 30/19 A2978 RMK A01 T03040193  RH  052%=      5-min Rain = 0
KWA1 160238Z 18014KT 30/19 A2978 RMK A01 T03030193  RH  052%=      5-min Rain = 0
KWA1 160239Z 18013KT 30/19 A2978 RMK A01 T03030193  RH  052%=      5-min Rain = 0
KWA1 160240Z 18013KT 30/19 A2978 RMK A01 T03020192  RH  052%=      5-min Rain = 0
KWA1 160241Z 18014KT 30/19 A2978 RMK A01 T03020192  RH  052%=      5-min Rain = 0
KWA1 160242Z 18013KT 30/19 A2978 RMK A01 T03020192  RH  052%=      5-min Rain = 0
KWA1 160243Z 17012KT 30/19 A2978 RMK A01 T03020192  RH  052%=      5-min Rain = 0
KWA1 160244Z 17012KT 30/19 A2978 RMK A01 T03010192  RH  052%=      5-min Rain = 0
KWA1 160245Z 17012KT 30/19 A2978 RMK A01 T03010192  RH  052%=      5-min Rain = 0
KWA1 160246Z 17011KT 30/19 A2978 RMK A01 T03000192  RH  052%=      5-min Rain = 0
KWA1 160247Z 17013KT 30/19 A2978 RMK A01 T02990192  RH  053%=      5-min Rain = 0
KWA1 160248Z 16013KT 30/19 A2978 RMK A01 T02990192  RH  053%=      5-min Rain = 0
KWA1 160249Z 16013KT 30/19 A2978 RMK A01 T02990192  RH  053%=      5-min Rain = 0
KWA1 160250Z 16015KT 30/19 A2977 RMK A01 T02990192  RH  053%=      5-min Rain = 0
KWA1 160251Z 16014KT 30/19 A2978 RMK A01 T02990192  RH  052%=      5-min Rain = 0
KWA1 160252Z 16015KT 30/19 A2978 RMK A01 T02990191  RH  052%=      5-min Rain = 0
KWA1 160253Z 16015KT 30/19 A2978 RMK A01 T03000191  RH  052%=      5-min Rain = 0
KWA1 160254Z 16016KT 30/19 A2978 RMK A01 T03000192  RH  052%=      5-min Rain = 0
KWA1 160255Z 16014KT 30/19 A2978 RMK A01 T03000192  RH  052%=      5-min Rain = 0
KWA1 160256Z 15013KT 30/19 A2978 RMK A01 T02990192  RH  052%=      5-min Rain = 0
KWA1 160257Z 15012KT 30/19 A2978 RMK A01 T02990192  RH  053%=      5-min Rain = 0
KWA1 160258Z 15013G18KT 30/19 A2978 RMK A01 T02980192  RH  053%=      5-min Rain = 0
KWA1 160259Z 15012KT 30/19 A2978 RMK A01 T02980192  RH  053%=      5-min Rain = 0
KWA1 160300Z 14011KT 30/19 A2978 RMK A01 T02980192  RH  053%=      5-min Rain = 0
KWA1 160301Z 14014KT 30/19 A2979 RMK A01 T02970192  RH  053%=      5-min Rain = 0
KWA1 160302Z 14013KT 30/19 A2979 RMK A01 T02970192  RH  053%=      5-min Rain = 0
KWA1 160303Z 15012KT 30/19 A2979 RMK A01 T02980192  RH  053%=      5-min Rain = 0
KWA1 160304Z 15013KT 30/19 A2979 RMK A01 T02980192  RH  053%=      5-min Rain = 0
KWA1 160305Z 15013KT 30/19 A2979 RMK A01 T02980192  RH  053%=      5-min Rain = 0
KWA1 160306Z 15015KT 30/19 A2979 RMK A01 T02980192  RH  053%=      5-min Rain = 0
KWA1 160307Z 15017KT 30/19 A298 RMK A01 T02980193  RH  053%=      5-min Rain = 0
KWA1 160308Z 15016KT 30/19 A298 RMK A01 T02980193  RH  053%=      5-min Rain = 0
KWA1 160309Z 15013KT 30/19 A298 RMK A01 T02980193  RH  053%=      5-min Rain = 0
KWA1 160310Z 14013KT 30/19 A298 RMK A01 T02980193  RH  053%=      5-min Rain = 0
KWA1 160311Z 15014KT 30/19 A298 RMK A01 T02980192  RH  053%=      5-min Rain = 0
KWA1 160312Z 15014KT 30/19 A298 RMK A01 T02980192  RH  053%=      5-min Rain = 0
KWA1 160313Z 15015KT 30/19 A298 RMK A01 T02980192  RH  053%=      5-min Rain = 0
KWA1 160314Z 16015KT 30/19 A298 RMK A01 T02980192  RH  053%=      5-min Rain = 0
KWA1 160315Z 15014KT 30/19 A298 RMK A01 T02980192  RH  053%=      5-min Rain = 0
KWA1 160316Z 15016KT 30/19 A298 RMK A01 T02970192  RH  053%=      5-min Rain = 0
KWA1 160317Z 16015KT 30/19 A298 RMK A01 T02970192  RH  053%=      5-min Rain = 0
KWA1 160318Z 16016KT 30/19 A298 RMK A01 T02970193  RH  053%=      5-min Rain = 0
KWA1 160319Z 16013KT 30/19 A298 RMK A01 T02970192  RH  053%=      5-min Rain = 0
KWA1 160320Z 17018KT 30/19 A298 RMK A01 T02970192  RH  053%=      5-min Rain = 0
KWA1 160321Z 16016KT 30/19 A298 RMK A01 T02970191  RH  053%=      5-min Rain = 0
KWA1 160322Z 17018G23KT 30/19 A298 RMK A01 T02980190  RH  053%=      5-min Rain = 0
KWA1 160323Z 17015KT 30/19 A298 RMK A01 T02980191  RH  053%=      5-min Rain = 0
KWA1 160324Z 16015KT 30/19 A298 RMK A01 T02970192  RH  053%=      5-min Rain = 0
KWA1 160325Z 17015G20KT 30/19 A298 RMK A01 T02970192  RH  053%=      5-min Rain = 0
KWA1 160326Z 17015KT 30/19 A298 RMK A01 T02960192  RH  053%=      5-min Rain = 0
KWA1 160327Z 17016KT 30/19 A298 RMK A01 T02960192  RH  054%=      5-min Rain = 0
KWA1 160328Z 16015KT 30/19 A298 RMK A01 T02960192  RH  054%=      5-min Rain = 0
KWA1 160329Z 17016KT 30/19 A298 RMK A01 T02950191  RH  054%=      5-min Rain = 0
KWA1 160330Z 16018KT 30/19 A298 RMK A01 T02950190  RH  053%=      5-min Rain = 0
KWA1 160331Z 17019KT 30/19 A2981 RMK A01 T02950188  RH  052%=      5-min Rain = 0
KWA1 160332Z 17020KT 30/19 A2981 RMK A01 T02950185  RH  052%=      5-min Rain = 0
KWA1 160333Z 17018KT 30/18 A2981 RMK A01 T02950183  RH  051%=      5-min Rain = 0
KWA1 160334Z 17017KT 29/18 A2981 RMK A01 T02940183  RH  051%=      5-min Rain = 0
KWA1 160335Z 16021KT 29/18 A298 RMK A01 T02930179  RH  050%=      5-min Rain = 0
KWA1 160336Z 17021KT 29/18 A2981 RMK A01 T02930176  RH  049%=      5-min Rain = 0
KWA1 160337Z 17022KT 29/18 A2981 RMK A01 T02940175  RH  049%=      5-min Rain = 0
KWA1 160338Z 17022KT 29/17 A2981 RMK A01 T02930174  RH  049%=      5-min Rain = 0
KWA1 160339Z 17021KT 29/17 A2981 RMK A01 T02920174  RH  049%=      5-min Rain = 0
KWA1 160340Z 17025KT 29/17 A2981 RMK A01 T02910172  RH  049%=      5-min Rain = 0
KWA1 160341Z 17021KT 29/17 A2981 RMK A01 T02900172  RH  049%=      5-min Rain = 0
KWA1 160342Z 17018KT 29/17 A2981 RMK A01 T02890172  RH  049%=      5-min Rain = 0
KWA1 160343Z 17018KT 29/17 A2981 RMK A01 T02880172  RH  050%=      5-min Rain = 0
KWA1 160344Z 17016KT 29/17 A2981 RMK A01 T02870172  RH  050%=      5-min Rain = 0
KWA1 160345Z 17018KT 29/17 A2981 RMK A01 T02860172  RH  050%=      5-min Rain = 0
KWA1 160346Z 17016KT 29/17 A2981 RMK A01 T02850172  RH  050%=      5-min Rain = 0
KWA1 160347Z 17019KT 28/17 A2981 RMK A01 T02840172  RH  051%=      5-min Rain = 0
KWA1 160348Z 17017G22KT 28/17 A2981 RMK A01 T02840173  RH  051%=      5-min Rain = 0
KWA1 160349Z 17021KT 28/17 A2981 RMK A01 T02840173  RH  051%=      5-min Rain = 0
KWA1 160350Z 16019KT 28/17 A2981 RMK A01 T02830173  RH  051%=      5-min Rain = 0
KWA1 160351Z 17019KT 28/17 A2981 RMK A01 T02830173  RH  051%=      5-min Rain = 0
KWA1 160352Z 17017G22KT 28/17 A2981 RMK A01 T02830173  RH  051%=      5-min Rain = 0
KWA1 160353Z 17017KT 28/17 A2981 RMK A01 T02820174  RH  052%=      5-min Rain = 0
KWA1 160354Z 17017G23KT 28/17 A2981 RMK A01 T02810174  RH  052%=      5-min Rain = 0
KWA1 160355Z 17017G22KT 28/17 A2981 RMK A01 T02800173  RH  052%=      5-min Rain = 0
KWA1 160356Z 17017KT 28/17 A2981 RMK A01 T02800174  RH  052%=      5-min Rain = 0
KWA1 160357Z 17017KT 28/17 A2982 RMK A01 T02790173  RH  052%=      5-min Rain = 0
KWA1 160358Z 16015KT 28/17 A2982 RMK A01 T02790173  RH  052%=      5-min Rain = 0
KWA1 160359Z 17014KT 28/17 A2982 RMK A01 T02780173  RH  053%=      5-min Rain = 0
KWA1 160400Z 17014G19KT 28/17 A2982 RMK A01 T02770172  RH  053%=      5-min Rain = 0
KWA1 160401Z 17015KT 28/17 A2981 RMK A01 T02770172  RH  053%=      5-min Rain = 0
KWA1 160402Z 17014KT 28/17 A2981 RMK A01 T02760172  RH  053%=      5-min Rain = 0
KWA1 160403Z 17016KT 28/17 A2982 RMK A01 T02750171  RH  053%=      5-min Rain = 0
KWA1 160404Z 17015KT 28/17 A2982 RMK A01 T02750171  RH  053%=      5-min Rain = 0
KWA1 160405Z 17016KT 28/17 A2981 RMK A01 T02750171  RH  053%=      5-min Rain = 0
KWA1 160406Z 17014KT 27/17 A2982 RMK A01 T02740171  RH  053%=      5-min Rain = 0
KWA1 160407Z 17012KT 27/17 A2982 RMK A01 T02740170  RH  053%=      5-min Rain = 0
KWA1 160408Z 17014KT 27/17 A2982 RMK A01 T02720170  RH  053%=      5-min Rain = 0
KWA1 160409Z 17014KT 27/17 A2982 RMK A01 T02720169  RH  053%=      5-min Rain = 0
KWA1 160410Z 17017KT 27/17 A2982 RMK A01 T02720168  RH  053%=      5-min Rain = 0
KWA1 160411Z 17014KT 27/17 A2982 RMK A01 T02720168  RH  053%=      5-min Rain = 0
KWA1 160412Z 17014KT 27/17 A2982 RMK A01 T02720168  RH  053%=      5-min Rain = 0
KWA1 160413Z 17012KT 27/17 A2982 RMK A01 T02720169  RH  053%=      5-min Rain = 0
KWA1 160414Z 17013KT 27/17 A2982 RMK A01 T02710169  RH  054%=      5-min Rain = 0
KWA1 160415Z 17015KT 27/17 A2982 RMK A01 T02700168  RH  054%=      5-min Rain = 0
KWA1 160416Z 17014KT 27/17 A2982 RMK A01 T02700168  RH  054%=      5-min Rain = 0
KWA1 160417Z 16014KT 27/17 A2982 RMK A01 T02700168  RH  054%=      5-min Rain = 0
KWA1 160418Z 16014KT 27/17 A2982 RMK A01 T02700168  RH  054%=      5-min Rain = 0
KWA1 160419Z 17011KT 27/17 A2982 RMK A01 T02700168  RH  054%=      5-min Rain = 0
KWA1 160420Z 16013KT 27/17 A2982 RMK A01 T02690168  RH  054%=      5-min Rain = 0
KWA1 160421Z 16011KT 27/17 A2982 RMK A01 T02680167  RH  054%=      5-min Rain = 0
KWA1 160422Z 16011KT 27/17 A2982 RMK A01 T02680167  RH  054%=      5-min Rain = 0
KWA1 160423Z 16009KT 27/17 A2982 RMK A01 T02680167  RH  054%=      5-min Rain = 0
KWA1 160424Z 16009KT 27/17 A2982 RMK A01 T02670167  RH  054%=      5-min Rain = 0
KWA1 160425Z 16009KT 27/17 A2982 RMK A01 T02660167  RH  054%=      5-min Rain = 0
KWA1 160426Z 16010KT 27/17 A2982 RMK A01 T02670167  RH  054%=      5-min Rain = 0
KWA1 160427Z 16008KT 27/17 A2982 RMK A01 T02660167  RH  054%=      5-min Rain = 0
KWA1 160428Z 16008KT 27/17 A2982 RMK A01 T02660167  RH  055%=      5-min Rain = 0
KWA1 160429Z 16009KT 27/17 A2982 RMK A01 T02650166  RH  055%=      5-min Rain = 0
KWA1 160430Z 16009KT 26/17 A2982 RMK A01 T02640166  RH  055%=      5-min Rain = 0
KWA1 160431Z 16009KT 26/17 A2982 RMK A01 T02640166  RH  055%=      5-min Rain = 0
KWA1 160432Z 16009KT 26/17 A2982 RMK A01 T02640166  RH  055%=      5-min Rain = 0
KWA1 160433Z 16010KT 26/17 A2982 RMK A01 T02640165  RH  055%=      5-min Rain = 0
KWA1 160434Z 16009KT 26/17 A2982 RMK A01 T02640165  RH  054%=      5-min Rain = 0
KWA1 160435Z 16009KT 26/17 A2982 RMK A01 T02640165  RH  054%=      5-min Rain = 0
KWA1 160436Z 16010KT 26/16 A2982 RMK A01 T02630164  RH  054%=      5-min Rain = 0
KWA1 160437Z 16012KT 26/16 A2982 RMK A01 T02630162  RH  054%=      5-min Rain = 0
KWA1 160438Z 16012KT 26/16 A2982 RMK A01 T02640161  RH  053%=      5-min Rain = 0
KWA1 160439Z 16013KT 27/16 A2982 RMK A01 T02650159  RH  052%=      5-min Rain = 0
KWA1 160440Z 16011KT 27/16 A2982 RMK A01 T02670160  RH  052%=      5-min Rain = 0
KWA1 160441Z 17012KT 27/16 A2982 RMK A01 T02660159  RH  052%=      5-min Rain = 0
KWA1 160442Z 17012KT 27/16 A2982 RMK A01 T02670159  RH  052%=      5-min Rain = 0
KWA1 160443Z 17011KT 27/16 A2982 RMK A01 T02660158  RH  051%=      5-min Rain = 0
KWA1 160444Z 16012KT 27/16 A2982 RMK A01 T02660158  RH  051%=      5-min Rain = 0
KWA1 160445Z 16011KT 27/16 A2982 RMK A01 T02660157  RH  051%=      5-min Rain = 0
KWA1 160446Z 17011KT 27/16 A2982 RMK A01 T02650157  RH  051%=      5-min Rain = 0
KWA1 160447Z 17012KT 27/16 A2982 RMK A01 T02650156  RH  051%=      5-min Rain = 0
KWA1 160448Z 17014KT 27/15 A2982 RMK A01 T02650153  RH  050%=      5-min Rain = 0
KWA1 160449Z 17013KT 27/15 A2982 RMK A01 T02670153  RH  050%=      5-min Rain = 0
KWA1 160450Z 17013KT 27/15 A2982 RMK A01 T02680152  RH  049%=      5-min Rain = 0
KWA1 160451Z 17012KT 27/15 A2982 RMK A01 T02680152  RH  049%=      5-min Rain = 0
KWA1 160452Z 17013KT 27/15 A2982 RMK A01 T02680152  RH  049%=      5-min Rain = 0
KWA1 160453Z 17014KT 27/15 A2982 RMK A01 T02680151  RH  049%=      5-min Rain = 0
KWA1 160454Z 17014KT 27/15 A2982 RMK A01 T02680150  RH  048%=      5-min Rain = 0
KWA1 160455Z 17013KT 27/15 A2982 RMK A01 T02680150  RH  048%=      5-min Rain = 0
KWA1 160456Z 17014KT 27/15 A2982 RMK A01 T02680150  RH  048%=      5-min Rain = 0
KWA1 160457Z 17014KT 27/15 A2982 RMK A01 T02680149  RH  048%=      5-min Rain = 0
KWA1 160458Z 17014KT 27/15 A2982 RMK A01 T02680149  RH  048%=      5-min Rain = 0
KWA1 160459Z 17014KT 27/15 A2982 RMK A01 T02670149  RH  048%=      5-min Rain = 0

Page generated in 0.0815 seconds.